PWSweather.com
Personal Weather Stations
Station Observations
DW6440
Atglen Borough, Atglen, PA 19310

Atglen BoroughAtglen, PA 19310

Lat: 39.9469, Lon: -75.979

Elevation: 498

Station Type: Davis Vantage Pro 2 Plus

http://atglenweather.net/

Latest ConditionsUpdated 7:05:38 AM EST Sunday, Jan 20, 2019
Currently Today's Max Today's Min Today's Average
Temperature 39.6°F4.2°C 39.7°F4.3°C 35.4°F1.9°C 37.5°F3.1°C
Dew Point 38.8°F3.8°C 39.0°F3.9°C 34.3°F1.3°C 36.7°F2.6°C
Winds 2.0 mph ESE3.2 kmh ESE 6.9 mph -11.1 kmh - - 3.0 mph 4.8 kmh
Wind Gusts 2.9 mph4.7 kmh 19.0 mph30.6 kmh - -
Humidity 97% 97% 96% 97%
Pressure 29.29 in991.9 mb 29.72 in1006.4 mb 29.29 in991.9 mb -
Precipitation - 0.51 in13.0 mm - -
Hour Temp Dew Point Humidity Winds Wind Gusts Pressure Precip Precip Rate Daily Precip Total
07:05 AM 39.6°F4.2°C 38.8°F3.8°C 97% 2.0 mph ESE3.2 kmh ESE 2.9 mph4.7 kmh 29.29 in991.9 mb 0.00 in0.0 mm 0.00 in0.0 mm 0.51 in13.0 mm
07:04 AM 39.6°F4.2°C 38.8°F3.8°C 97% 2.0 mph ESE3.2 kmh ESE 2.9 mph4.7 kmh 29.29 in991.9 mb 0.00 in0.0 mm 0.00 in0.0 mm 0.51 in13.0 mm
07:03 AM 39.6°F4.2°C 38.8°F3.8°C 97% 2.0 mph ESE3.2 kmh ESE 4.0 mph6.4 kmh 29.29 in991.9 mb 0.00 in0.0 mm 0.00 in0.0 mm 0.51 in13.0 mm
07:02 AM 39.6°F4.2°C 38.8°F3.8°C 97% 2.0 mph SE3.2 kmh SE 4.0 mph6.4 kmh 29.29 in991.9 mb 0.00 in0.0 mm 0.00 in0.0 mm 0.51 in13.0 mm
07:01 AM 39.6°F4.2°C 38.8°F3.8°C 97% 2.0 mph E3.2 kmh E 4.0 mph6.4 kmh 29.29 in991.9 mb 0.00 in0.0 mm 0.00 in0.0 mm 0.51 in13.0 mm
07:00 AM 39.6°F4.2°C 38.8°F3.8°C 97% 2.0 mph ESE3.2 kmh ESE 4.0 mph6.4 kmh 29.29 in991.9 mb 0.00 in0.0 mm 0.00 in0.0 mm 0.51 in13.0 mm
06:59 AM 39.7°F4.3°C 39.0°F3.9°C 97% 2.0 mph E3.2 kmh E 0.9 mph1.4 kmh 29.29 in991.9 mb 0.00 in0.0 mm 0.00 in0.0 mm 0.51 in13.0 mm
06:58 AM 39.7°F4.3°C 39.0°F3.9°C 97% 2.9 mph E4.7 kmh E 0.9 mph1.4 kmh 29.30 in992.2 mb 0.00 in0.0 mm 0.00 in0.0 mm 0.51 in13.0 mm
06:57 AM 39.7°F4.3°C 39.0°F3.9°C 97% 2.9 mph E4.7 kmh E 6.0 mph9.7 kmh 29.30 in992.2 mb 0.00 in0.0 mm 0.00 in0.0 mm 0.51 in13.0 mm
06:56 AM 39.7°F4.3°C 39.0°F3.9°C 97% 2.9 mph E4.7 kmh E 6.0 mph9.7 kmh 29.31 in992.6 mb 0.00 in0.0 mm 0.00 in0.0 mm 0.51 in13.0 mm
06:55 AM 39.7°F4.3°C 39.0°F3.9°C 97% 2.9 mph E4.7 kmh E 6.9 mph11.1 kmh 29.30 in992.2 mb 0.00 in0.0 mm 0.00 in0.0 mm 0.51 in13.0 mm
06:54 AM 39.7°F4.3°C 39.0°F3.9°C 97% 2.9 mph E4.7 kmh E 6.9 mph11.1 kmh 29.31 in992.6 mb 0.00 in0.0 mm 0.00 in0.0 mm 0.51 in13.0 mm
06:53 AM 39.7°F4.3°C 39.0°F3.9°C 97% 2.9 mph ESE4.7 kmh ESE 6.9 mph11.1 kmh 29.31 in992.6 mb 0.00 in0.0 mm 0.00 in0.0 mm 0.51 in13.0 mm
06:52 AM 39.7°F4.3°C 39.0°F3.9°C 97% 2.0 mph SE3.2 kmh SE 6.0 mph9.7 kmh 29.31 in992.6 mb 0.00 in0.0 mm 0.00 in0.0 mm 0.51 in13.0 mm
06:51 AM 39.7°F4.3°C 39.0°F3.9°C 97% 2.0 mph ESE3.2 kmh ESE 4.0 mph6.4 kmh 29.31 in992.6 mb 0.00 in0.0 mm 0.00 in0.0 mm 0.51 in13.0 mm
06:50 AM 39.7°F4.3°C 39.0°F3.9°C 97% 2.0 mph ESE3.2 kmh ESE 4.0 mph6.4 kmh 29.31 in992.6 mb 0.00 in0.0 mm 0.00 in0.0 mm 0.51 in13.0 mm
06:49 AM 39.7°F4.3°C 39.0°F3.9°C 97% 2.0 mph ESE3.2 kmh ESE 9.0 mph14.5 kmh 29.31 in992.6 mb 0.00 in0.0 mm 0.00 in0.0 mm 0.51 in13.0 mm
06:48 AM 39.7°F4.3°C 39.0°F3.9°C 97% 2.0 mph ESE3.2 kmh ESE 6.9 mph11.1 kmh 29.31 in992.6 mb 0.00 in0.0 mm 0.00 in0.0 mm 0.51 in13.0 mm
06:47 AM 39.7°F4.3°C 39.0°F3.9°C 97% 0.9 mph ESE1.4 kmh ESE 6.0 mph9.7 kmh 29.31 in992.6 mb 0.00 in0.0 mm 0.00 in0.0 mm 0.51 in13.0 mm
06:46 AM 39.7°F4.3°C 39.0°F3.9°C 97% 0.9 mph ESE1.4 kmh ESE 2.0 mph3.2 kmh 29.31 in992.6 mb 0.00 in0.0 mm 0.00 in0.0 mm 0.51 in13.0 mm
06:45 AM 39.7°F4.3°C 39.0°F3.9°C 97% 0.9 mph ESE1.4 kmh ESE 4.0 mph6.4 kmh 29.31 in992.6 mb 0.00 in0.0 mm 0.00 in0.0 mm 0.51 in13.0 mm
06:44 AM 39.7°F4.3°C 39.0°F3.9°C 97% 0.9 mph SE1.4 kmh SE 2.9 mph4.7 kmh 29.31 in992.6 mb 0.00 in0.0 mm 0.00 in0.0 mm 0.51 in13.0 mm
06:43 AM 39.7°F4.3°C 39.0°F3.9°C 97% 0.9 mph E1.4 kmh E 0.9 mph1.4 kmh 29.31 in992.6 mb 0.00 in0.0 mm 0.00 in0.0 mm 0.51 in13.0 mm
06:42 AM 39.7°F4.3°C 39.0°F3.9°C 97% 0.9 mph E1.4 kmh E 2.9 mph4.7 kmh 29.31 in992.6 mb 0.00 in0.0 mm 0.00 in0.0 mm 0.51 in13.0 mm
06:41 AM 39.7°F4.3°C 39.0°F3.9°C 97% 0.9 mph E1.4 kmh E 2.9 mph4.7 kmh 29.31 in992.6 mb 0.00 in0.0 mm 0.00 in0.0 mm 0.51 in13.0 mm
06:40 AM 39.7°F4.3°C 39.0°F3.9°C 97% 0.9 mph E1.4 kmh E 2.0 mph3.2 kmh 29.31 in992.6 mb 0.00 in0.0 mm 0.00 in0.0 mm 0.51 in13.0 mm
06:39 AM 39.7°F4.3°C 39.0°F3.9°C 97% 0.9 mph E1.4 kmh E 2.9 mph4.7 kmh 29.31 in992.6 mb 0.00 in0.0 mm 0.00 in0.0 mm 0.51 in13.0 mm
06:38 AM 39.7°F4.3°C 39.0°F3.9°C 97% 0.9 mph ENE1.4 kmh ENE 0.9 mph1.4 kmh 29.31 in992.6 mb 0.00 in0.0 mm 0.00 in0.0 mm 0.51 in13.0 mm
06:37 AM 39.7°F4.3°C 39.0°F3.9°C 97% 0.9 mph ENE1.4 kmh ENE 2.0 mph3.2 kmh 29.31 in992.6 mb 0.00 in0.0 mm 0.00 in0.0 mm 0.51 in13.0 mm
06:36 AM 39.7°F4.3°C 39.0°F3.9°C 97% 2.0 mph ENE3.2 kmh ENE 2.0 mph3.2 kmh 29.31 in992.6 mb 0.00 in0.0 mm 0.00 in0.0 mm 0.51 in13.0 mm
06:35 AM 39.7°F4.3°C 39.0°F3.9°C 97% 2.0 mph ENE3.2 kmh ENE 2.0 mph3.2 kmh 29.31 in992.6 mb 0.00 in0.0 mm 0.00 in0.0 mm 0.51 in13.0 mm
06:34 AM 39.7°F4.3°C 39.0°F3.9°C 97% 2.0 mph ENE3.2 kmh ENE 2.0 mph3.2 kmh 29.31 in992.6 mb 0.00 in0.0 mm 0.00 in0.0 mm 0.51 in13.0 mm
06:33 AM 39.6°F4.2°C 38.8°F3.8°C 97% 2.0 mph ENE3.2 kmh ENE 2.0 mph3.2 kmh 29.31 in992.6 mb 0.00 in0.0 mm 0.00 in0.0 mm 0.51 in13.0 mm
06:32 AM 39.6°F4.2°C 38.8°F3.8°C 97% 2.0 mph ESE3.2 kmh ESE 2.0 mph3.2 kmh 29.31 in992.6 mb 0.00 in0.0 mm 0.00 in0.0 mm 0.51 in13.0 mm
06:31 AM 39.6°F4.2°C 38.8°F3.8°C 97% 2.0 mph ESE3.2 kmh ESE 2.9 mph4.7 kmh 29.31 in992.6 mb 0.00 in0.0 mm 0.00 in0.0 mm 0.51 in13.0 mm
06:30 AM 39.6°F4.2°C 38.8°F3.8°C 97% 2.0 mph E3.2 kmh E 2.0 mph3.2 kmh 29.31 in992.6 mb 0.00 in0.0 mm 0.00 in0.0 mm 0.51 in13.0 mm
06:29 AM 39.6°F4.2°C 38.8°F3.8°C 97% 2.0 mph E3.2 kmh E 4.9 mph7.9 kmh 29.32 in992.9 mb 0.00 in0.0 mm 0.00 in0.0 mm 0.51 in13.0 mm
06:28 AM 39.6°F4.2°C 38.8°F3.8°C 97% 2.0 mph ESE3.2 kmh ESE 6.0 mph9.7 kmh 29.32 in992.9 mb 0.00 in0.0 mm 0.00 in0.0 mm 0.51 in13.0 mm
06:27 AM 39.6°F4.2°C 38.8°F3.8°C 97% 0.9 mph E1.4 kmh E 6.0 mph9.7 kmh 29.32 in992.9 mb 0.00 in0.0 mm 0.00 in0.0 mm 0.51 in13.0 mm
06:26 AM 39.4°F4.1°C 38.7°F3.7°C 97% 0.9 mph SE1.4 kmh SE 4.0 mph6.4 kmh 29.32 in992.9 mb 0.00 in0.0 mm 0.00 in0.0 mm 0.51 in13.0 mm
06:25 AM 39.4°F4.1°C 38.7°F3.7°C 97% 2.0 mph E3.2 kmh E 2.9 mph4.7 kmh 29.32 in992.9 mb 0.00 in0.0 mm 0.00 in0.0 mm 0.51 in13.0 mm
06:24 AM 39.4°F4.1°C 38.7°F3.7°C 97% 2.0 mph E3.2 kmh E 2.9 mph4.7 kmh 29.32 in992.9 mb 0.00 in0.0 mm 0.00 in0.0 mm 0.51 in13.0 mm
06:23 AM 39.4°F4.1°C 38.7°F3.7°C 97% 2.0 mph E3.2 kmh E 2.9 mph4.7 kmh 29.32 in992.9 mb 0.00 in0.0 mm 0.00 in0.0 mm 0.51 in13.0 mm
06:22 AM 39.2°F4.0°C 38.5°F3.6°C 97% 0.9 mph ESE1.4 kmh ESE 2.9 mph4.7 kmh 29.32 in992.9 mb 0.00 in0.0 mm 0.00 in0.0 mm 0.51 in13.0 mm
06:21 AM 39.2°F4.0°C 38.5°F3.6°C 97% 0.9 mph ESE1.4 kmh ESE 2.0 mph3.2 kmh 29.32 in992.9 mb 0.00 in0.0 mm 0.00 in0.0 mm 0.51 in13.0 mm
06:20 AM 39.0°F3.9°C 38.3°F3.5°C 97% 0.9 mph ESE1.4 kmh ESE 2.9 mph4.7 kmh 29.32 in992.9 mb 0.00 in0.0 mm 0.00 in0.0 mm 0.51 in13.0 mm
06:19 AM 39.0°F3.9°C 38.3°F3.5°C 97% 0.9 mph ESE1.4 kmh ESE 2.9 mph4.7 kmh 29.32 in992.9 mb 0.00 in0.0 mm 0.00 in0.0 mm 0.51 in13.0 mm
06:18 AM 39.0°F3.9°C 38.3°F3.5°C 97% 0.9 mph E1.4 kmh E 4.0 mph6.4 kmh 29.32 in992.9 mb 0.00 in0.0 mm 0.00 in0.0 mm 0.51 in13.0 mm
06:17 AM 39.0°F3.9°C 38.3°F3.5°C 97% 0.9 mph E1.4 kmh E 4.0 mph6.4 kmh 29.33 in993.2 mb 0.00 in0.0 mm 0.00 in0.0 mm 0.51 in13.0 mm
06:16 AM 38.8°F3.8°C 38.1°F3.4°C 97% 0.9 mph ESE1.4 kmh ESE 4.0 mph6.4 kmh 29.33 in993.2 mb 0.00 in0.0 mm 0.00 in0.0 mm 0.51 in13.0 mm
06:15 AM 38.8°F3.8°C 38.1°F3.4°C 97% 0.9 mph ESE1.4 kmh ESE 4.0 mph6.4 kmh 29.33 in993.2 mb 0.00 in0.0 mm 0.00 in0.0 mm 0.51 in13.0 mm
06:14 AM 38.8°F3.8°C 38.1°F3.4°C 97% 0.9 mph ENE1.4 kmh ENE 2.0 mph3.2 kmh 29.33 in993.2 mb 0.00 in0.0 mm 0.00 in0.0 mm 0.51 in13.0 mm
06:13 AM 38.8°F3.8°C 38.1°F3.4°C 97% Calm Calm 2.0 mph3.2 kmh 29.34 in993.6 mb 0.00 in0.0 mm 0.00 in0.0 mm 0.51 in13.0 mm
06:12 AM 38.8°F3.8°C 38.1°F3.4°C 97% Calm Calm 0.9 mph1.4 kmh 29.34 in993.6 mb 0.00 in0.0 mm 0.00 in0.0 mm 0.51 in13.0 mm
06:11 AM 38.8°F3.8°C 38.1°F3.4°C 97% Calm Calm 2.0 mph3.2 kmh 29.34 in993.6 mb 0.00 in0.0 mm 0.00 in0.0 mm 0.51 in13.0 mm
06:10 AM 38.8°F3.8°C 38.1°F3.4°C 97% Calm Calm 0.9 mph1.4 kmh 29.34 in993.6 mb 0.00 in0.0 mm 0.00 in0.0 mm 0.51 in13.0 mm
06:09 AM 38.8°F3.8°C 38.1°F3.4°C 97% Calm Calm 0.9 mph1.4 kmh 29.35 in993.9 mb 0.00 in0.0 mm 0.00 in0.0 mm 0.51 in13.0 mm
06:08 AM 38.8°F3.8°C 38.1°F3.4°C 97% Calm Calm 0.9 mph1.4 kmh 29.35 in993.9 mb 0.00 in0.0 mm 0.00 in0.0 mm 0.51 in13.0 mm
06:07 AM 38.8°F3.8°C 38.1°F3.4°C 97% Calm Calm 0.9 mph1.4 kmh 29.35 in993.9 mb 0.00 in0.0 mm 0.00 in0.0 mm 0.51 in13.0 mm
06:06 AM 38.8°F3.8°C 38.1°F3.4°C 97% Calm Calm 0.9 mph1.4 kmh 29.35 in993.9 mb 0.00 in0.0 mm 0.00 in0.0 mm 0.51 in13.0 mm
06:05 AM 38.8°F3.8°C 38.1°F3.4°C 97% Calm Calm 0.9 mph1.4 kmh 29.35 in993.9 mb 0.01 in0.3 mm 0.00 in0.0 mm 0.51 in13.0 mm
06:04 AM 38.8°F3.8°C 38.1°F3.4°C 97% Calm Calm 0.9 mph1.4 kmh 29.35 in993.9 mb 0.01 in0.3 mm 0.00 in0.0 mm 0.51 in13.0 mm
06:03 AM 38.8°F3.8°C 38.1°F3.4°C 97% Calm Calm 0.9 mph1.4 kmh 29.35 in993.9 mb 0.01 in0.3 mm 0.00 in0.0 mm 0.51 in13.0 mm
06:02 AM 38.8°F3.8°C 38.1°F3.4°C 97% Calm Calm 0.9 mph1.4 kmh 29.35 in993.9 mb 0.01 in0.3 mm 0.00 in0.0 mm 0.51 in13.0 mm
06:01 AM 38.8°F3.8°C 38.1°F3.4°C 97% 0.9 mph ENE1.4 kmh ENE 2.9 mph4.7 kmh 29.35 in993.9 mb 0.01 in0.3 mm 0.00 in0.0 mm 0.51 in13.0 mm
06:00 AM 39.0°F3.9°C 38.3°F3.5°C 97% Calm Calm 2.9 mph4.7 kmh 29.35 in993.9 mb 0.01 in0.3 mm 0.00 in0.0 mm 0.51 in13.0 mm
05:59 AM 39.0°F3.9°C 38.3°F3.5°C 97% Calm Calm 0.9 mph1.4 kmh 29.35 in993.9 mb 0.01 in0.3 mm 0.00 in0.0 mm 0.51 in13.0 mm
05:58 AM 39.0°F3.9°C 38.3°F3.5°C 97% 0.9 mph ENE1.4 kmh ENE 2.0 mph3.2 kmh 29.35 in993.9 mb 0.01 in0.3 mm 0.00 in0.0 mm 0.51 in13.0 mm
05:57 AM 39.0°F3.9°C 38.3°F3.5°C 97% 0.9 mph ENE1.4 kmh ENE 2.0 mph3.2 kmh 29.35 in993.9 mb 0.01 in0.3 mm 0.00 in0.0 mm 0.51 in13.0 mm
05:56 AM 39.0°F3.9°C 38.3°F3.5°C 97% 0.9 mph ENE1.4 kmh ENE 2.0 mph3.2 kmh 29.35 in993.9 mb 0.01 in0.3 mm 0.00 in0.0 mm 0.51 in13.0 mm
05:55 AM 39.0°F3.9°C 38.3°F3.5°C 97% 0.9 mph ENE1.4 kmh ENE 0.9 mph1.4 kmh 29.35 in993.9 mb 0.01 in0.3 mm 0.00 in0.0 mm 0.51 in13.0 mm
05:54 AM 39.0°F3.9°C 38.3°F3.5°C 97% 0.9 mph ENE1.4 kmh ENE 0.9 mph1.4 kmh 29.35 in993.9 mb 0.01 in0.3 mm 0.00 in0.0 mm 0.51 in13.0 mm
05:53 AM 39.0°F3.9°C 38.3°F3.5°C 97% 0.9 mph ENE1.4 kmh ENE 2.0 mph3.2 kmh 29.35 in993.9 mb 0.01 in0.3 mm 0.00 in0.0 mm 0.51 in13.0 mm
05:52 AM 39.0°F3.9°C 38.3°F3.5°C 97% 0.9 mph ENE1.4 kmh ENE 2.0 mph3.2 kmh 29.35 in993.9 mb 0.01 in0.3 mm 0.00 in0.0 mm 0.51 in13.0 mm
05:51 AM 38.8°F3.8°C 38.1°F3.4°C 97% 0.9 mph ENE1.4 kmh ENE 2.0 mph3.2 kmh 29.35 in993.9 mb 0.01 in0.3 mm 0.00 in0.0 mm 0.51 in13.0 mm
05:50 AM 38.8°F3.8°C 38.1°F3.4°C 97% 0.9 mph ENE1.4 kmh ENE 0.9 mph1.4 kmh 29.35 in993.9 mb 0.01 in0.3 mm 0.00 in0.0 mm 0.51 in13.0 mm
05:49 AM 39.0°F3.9°C 38.3°F3.5°C 97% 0.9 mph ENE1.4 kmh ENE 0.9 mph1.4 kmh 29.35 in993.9 mb 0.01 in0.3 mm 0.00 in0.0 mm 0.51 in13.0 mm
05:48 AM 38.8°F3.8°C 38.1°F3.4°C 97% 0.9 mph ENE1.4 kmh ENE 2.9 mph4.7 kmh 29.35 in993.9 mb 0.01 in0.3 mm 0.00 in0.0 mm 0.51 in13.0 mm
05:47 AM 38.8°F3.8°C 38.1°F3.4°C 97% 0.9 mph ENE1.4 kmh ENE 2.0 mph3.2 kmh 29.36 in994.2 mb 0.01 in0.3 mm 0.00 in0.0 mm 0.51 in13.0 mm
05:46 AM 38.8°F3.8°C 38.1°F3.4°C 97% Calm Calm 2.0 mph3.2 kmh 29.36 in994.2 mb 0.01 in0.3 mm 0.00 in0.0 mm 0.51 in13.0 mm
05:45 AM 38.8°F3.8°C 38.1°F3.4°C 97% Calm Calm 2.0 mph3.2 kmh 29.36 in994.2 mb 0.01 in0.3 mm 0.00 in0.0 mm 0.51 in13.0 mm
05:44 AM 38.8°F3.8°C 38.1°F3.4°C 97% Calm Calm 0.9 mph1.4 kmh 29.36 in994.2 mb 0.01 in0.3 mm 0.00 in0.0 mm 0.51 in13.0 mm
05:43 AM 38.8°F3.8°C 38.1°F3.4°C 97% 0.9 mph ENE1.4 kmh ENE 0.9 mph1.4 kmh 29.37 in994.6 mb 0.01 in0.3 mm 0.00 in0.0 mm 0.51 in13.0 mm
05:42 AM 38.8°F3.8°C 38.1°F3.4°C 97% 0.9 mph ENE1.4 kmh ENE 2.9 mph4.7 kmh 29.36 in994.2 mb 0.01 in0.3 mm 0.00 in0.0 mm 0.51 in13.0 mm
05:41 AM 39.0°F3.9°C 38.3°F3.5°C 97% 0.9 mph ENE1.4 kmh ENE 2.9 mph4.7 kmh 29.36 in994.2 mb 0.02 in0.5 mm 0.00 in0.0 mm 0.51 in13.0 mm
05:40 AM 39.0°F3.9°C 38.3°F3.5°C 97% 0.9 mph E1.4 kmh E 2.0 mph3.2 kmh 29.36 in994.2 mb 0.02 in0.5 mm 0.00 in0.0 mm 0.51 in13.0 mm
05:39 AM 39.0°F3.9°C 38.3°F3.5°C 97% 0.9 mph E1.4 kmh E 2.0 mph3.2 kmh 29.36 in994.2 mb 0.02 in0.5 mm 0.00 in0.0 mm 0.51 in13.0 mm
05:38 AM 39.0°F3.9°C 38.3°F3.5°C 97% 0.9 mph E1.4 kmh E 2.0 mph3.2 kmh 29.37 in994.6 mb 0.02 in0.5 mm 0.00 in0.0 mm 0.51 in13.0 mm
05:37 AM 39.0°F3.9°C 38.3°F3.5°C 97% 0.9 mph E1.4 kmh E 0.9 mph1.4 kmh 29.37 in994.6 mb 0.02 in0.5 mm 0.00 in0.0 mm 0.51 in13.0 mm
05:36 AM 39.0°F3.9°C 38.3°F3.5°C 97% 0.9 mph E1.4 kmh E 0.9 mph1.4 kmh 29.37 in994.6 mb 0.02 in0.5 mm 0.00 in0.0 mm 0.51 in13.0 mm
05:35 AM 39.0°F3.9°C 38.3°F3.5°C 97% 0.9 mph E1.4 kmh E 0.9 mph1.4 kmh 29.37 in994.6 mb 0.02 in0.5 mm 0.00 in0.0 mm 0.51 in13.0 mm
05:33 AM 39.0°F3.9°C 38.3°F3.5°C 97% 0.9 mph E1.4 kmh E 4.0 mph6.4 kmh 29.37 in994.6 mb 0.02 in0.5 mm 0.00 in0.0 mm 0.51 in13.0 mm
05:32 AM 39.0°F3.9°C 38.3°F3.5°C 97% 0.9 mph ESE1.4 kmh ESE 4.0 mph6.4 kmh 29.37 in994.6 mb 0.02 in0.5 mm 0.00 in0.0 mm 0.51 in13.0 mm
05:31 AM 39.0°F3.9°C 38.3°F3.5°C 97% 2.0 mph ENE3.2 kmh ENE 0.9 mph1.4 kmh 29.37 in994.6 mb 0.02 in0.5 mm 0.00 in0.0 mm 0.51 in13.0 mm
05:30 AM 39.0°F3.9°C 38.3°F3.5°C 97% 2.0 mph ENE3.2 kmh ENE 2.0 mph3.2 kmh 29.37 in994.6 mb 0.02 in0.5 mm 0.00 in0.0 mm 0.51 in13.0 mm
05:29 AM 38.8°F3.8°C 38.1°F3.4°C 97% 2.0 mph ENE3.2 kmh ENE 2.9 mph4.7 kmh 29.37 in994.6 mb 0.02 in0.5 mm 0.00 in0.0 mm 0.51 in13.0 mm
05:28 AM 38.8°F3.8°C 38.1°F3.4°C 97% 2.0 mph ENE3.2 kmh ENE 4.0 mph6.4 kmh 29.37 in994.6 mb 0.02 in0.5 mm 0.00 in0.0 mm 0.51 in13.0 mm
05:27 AM 38.8°F3.8°C 38.1°F3.4°C 97% 2.0 mph NE3.2 kmh NE 4.0 mph6.4 kmh 29.37 in994.6 mb 0.02 in0.5 mm 0.00 in0.0 mm 0.51 in13.0 mm
05:26 AM 38.8°F3.8°C 38.1°F3.4°C 97% 2.0 mph E3.2 kmh E 2.0 mph3.2 kmh 29.37 in994.6 mb 0.02 in0.5 mm 0.00 in0.0 mm 0.51 in13.0 mm
05:25 AM 38.8°F3.8°C 38.1°F3.4°C 97% 2.0 mph E3.2 kmh E 4.0 mph6.4 kmh 29.37 in994.6 mb 0.02 in0.5 mm 0.00 in0.0 mm 0.51 in13.0 mm
05:24 AM 38.8°F3.8°C 38.1°F3.4°C 97% 2.0 mph ENE3.2 kmh ENE 4.9 mph7.9 kmh 29.36 in994.2 mb 0.02 in0.5 mm 0.00 in0.0 mm 0.51 in13.0 mm
05:23 AM 38.8°F3.8°C 38.1°F3.4°C 97% 2.0 mph NE3.2 kmh NE 4.9 mph7.9 kmh 29.36 in994.2 mb 0.02 in0.5 mm 0.00 in0.0 mm 0.51 in13.0 mm
05:22 AM 38.8°F3.8°C 38.1°F3.4°C 97% 0.9 mph ENE1.4 kmh ENE 4.9 mph7.9 kmh 29.36 in994.2 mb 0.02 in0.5 mm 0.00 in0.0 mm 0.51 in13.0 mm
05:21 AM 38.8°F3.8°C 38.1°F3.4°C 97% 0.9 mph E1.4 kmh E 4.9 mph7.9 kmh 29.36 in994.2 mb 0.02 in0.5 mm 0.00 in0.0 mm 0.51 in13.0 mm
05:20 AM 38.8°F3.8°C 38.1°F3.4°C 97% 0.9 mph E1.4 kmh E 0.9 mph1.4 kmh 29.36 in994.2 mb 0.02 in0.5 mm 0.00 in0.0 mm 0.51 in13.0 mm
05:19 AM 38.8°F3.8°C 38.1°F3.4°C 97% 2.0 mph E3.2 kmh E 2.9 mph4.7 kmh 29.36 in994.2 mb 0.02 in0.5 mm 0.00 in0.0 mm 0.51 in13.0 mm
05:18 AM 38.8°F3.8°C 38.1°F3.4°C 97% 2.0 mph E3.2 kmh E 6.9 mph11.1 kmh 29.36 in994.2 mb 0.02 in0.5 mm 0.00 in0.0 mm 0.51 in13.0 mm
05:17 AM 38.8°F3.8°C 38.1°F3.4°C 97% 2.0 mph SE3.2 kmh SE 6.9 mph11.1 kmh 29.36 in994.2 mb 0.02 in0.5 mm 0.00 in0.0 mm 0.51 in13.0 mm
05:16 AM 39.0°F3.9°C 38.3°F3.5°C 97% 2.0 mph NE3.2 kmh NE 2.0 mph3.2 kmh 29.36 in994.2 mb 0.02 in0.5 mm 0.00 in0.0 mm 0.51 in13.0 mm
05:15 AM 39.0°F3.9°C 38.3°F3.5°C 97% 2.0 mph NE3.2 kmh NE 4.0 mph6.4 kmh 29.36 in994.2 mb 0.02 in0.5 mm 0.00 in0.0 mm 0.51 in13.0 mm
05:14 AM 39.0°F3.9°C 38.3°F3.5°C 97% 2.0 mph SW3.2 kmh SW 2.0 mph3.2 kmh 29.37 in994.6 mb 0.02 in0.5 mm 0.00 in0.0 mm 0.51 in13.0 mm
05:13 AM 39.0°F3.9°C 38.3°F3.5°C 97% 2.0 mph SW3.2 kmh SW 4.0 mph6.4 kmh 29.38 in994.9 mb 0.02 in0.5 mm 0.00 in0.0 mm 0.51 in13.0 mm
05:12 AM 39.0°F3.9°C 38.3°F3.5°C 97% 2.9 mph SSW4.7 kmh SSW 4.0 mph6.4 kmh 29.38 in994.9 mb 0.02 in0.5 mm 0.00 in0.0 mm 0.51 in13.0 mm
05:11 AM 38.8°F3.8°C 38.1°F3.4°C 97% 2.9 mph NW4.7 kmh NW 2.9 mph4.7 kmh 29.38 in994.9 mb 0.03 in0.8 mm 0.00 in0.0 mm 0.51 in13.0 mm
05:10 AM 38.8°F3.8°C 38.1°F3.4°C 97% 2.9 mph N4.7 kmh N 2.9 mph4.7 kmh 29.38 in994.9 mb 0.03 in0.8 mm 0.00 in0.0 mm 0.51 in13.0 mm
05:09 AM 38.8°F3.8°C 38.1°F3.4°C 97% 2.9 mph NNE4.7 kmh NNE 2.9 mph4.7 kmh 29.37 in994.6 mb 0.03 in0.8 mm 0.00 in0.0 mm 0.51 in13.0 mm
05:08 AM 38.8°F3.8°C 38.1°F3.4°C 97% 4.0 mph ESE6.4 kmh ESE 2.9 mph4.7 kmh 29.37 in994.6 mb 0.03 in0.8 mm 0.00 in0.0 mm 0.51 in13.0 mm
05:07 AM 38.7°F3.7°C 37.9°F3.3°C 97% 4.0 mph NE6.4 kmh NE 8.1 mph13.0 kmh 29.37 in994.6 mb 0.03 in0.8 mm 0.00 in0.0 mm 0.51 in13.0 mm
05:06 AM 38.7°F3.7°C 37.9°F3.3°C 97% 4.0 mph E6.4 kmh E 4.9 mph7.9 kmh 29.36 in994.2 mb 0.03 in0.8 mm 0.60 in15.2 mm 0.51 in13.0 mm
05:05 AM 38.7°F3.7°C 37.9°F3.3°C 97% 4.0 mph E6.4 kmh E 8.1 mph13.0 kmh 29.36 in994.2 mb 0.02 in0.5 mm 0.00 in0.0 mm 0.51 in13.0 mm
05:04 AM 38.7°F3.7°C 37.9°F3.3°C 97% 4.0 mph E6.4 kmh E 8.1 mph13.0 kmh 29.36 in994.2 mb 0.02 in0.5 mm 0.00 in0.0 mm 0.50 in12.7 mm
05:03 AM 38.7°F3.7°C 37.9°F3.3°C 97% 4.0 mph ESE6.4 kmh ESE 6.9 mph11.1 kmh 29.36 in994.2 mb 0.02 in0.5 mm 0.00 in0.0 mm 0.50 in12.7 mm
05:02 AM 38.5°F3.6°C 37.8°F3.2°C 97% 4.0 mph SE6.4 kmh SE 10.1 mph16.3 kmh 29.36 in994.2 mb 0.02 in0.5 mm 0.00 in0.0 mm 0.50 in12.7 mm
05:01 AM 38.5°F3.6°C 37.8°F3.2°C 97% 4.0 mph ESE6.4 kmh ESE 10.1 mph16.3 kmh 29.36 in994.2 mb 0.02 in0.5 mm 0.00 in0.0 mm 0.50 in12.7 mm
05:00 AM 38.5°F3.6°C 37.8°F3.2°C 97% 4.0 mph NE6.4 kmh NE 11.0 mph17.7 kmh 29.37 in994.6 mb 0.02 in0.5 mm 0.00 in0.0 mm 0.50 in12.7 mm
04:59 AM 38.3°F3.5°C 37.6°F3.1°C 97% 4.0 mph E6.4 kmh E 11.0 mph17.7 kmh 29.37 in994.6 mb 0.02 in0.5 mm 0.00 in0.0 mm 0.50 in12.7 mm
04:58 AM 38.1°F3.4°C 37.4°F3.0°C 97% 2.9 mph ESE4.7 kmh ESE 11.0 mph17.7 kmh 29.37 in994.6 mb 0.02 in0.5 mm 0.00 in0.0 mm 0.50 in12.7 mm
04:57 AM 38.1°F3.4°C 37.4°F3.0°C 97% 2.9 mph E4.7 kmh E 6.0 mph9.7 kmh 29.37 in994.6 mb 0.02 in0.5 mm 0.00 in0.0 mm 0.50 in12.7 mm
04:56 AM 38.1°F3.4°C 37.4°F3.0°C 97% 2.9 mph E4.7 kmh E 6.9 mph11.1 kmh 29.36 in994.2 mb 0.03 in0.8 mm 0.00 in0.0 mm 0.50 in12.7 mm
04:55 AM 37.9°F3.3°C 37.2°F2.9°C 97% 2.9 mph ESE4.7 kmh ESE 11.0 mph17.7 kmh 29.36 in994.2 mb 0.03 in0.8 mm 0.00 in0.0 mm 0.50 in12.7 mm
04:54 AM 37.9°F3.3°C 37.2°F2.9°C 97% 2.9 mph SE4.7 kmh SE 6.0 mph9.7 kmh 29.36 in994.2 mb 0.03 in0.8 mm 0.00 in0.0 mm 0.50 in12.7 mm
04:53 AM 37.9°F3.3°C 37.2°F2.9°C 97% 4.0 mph ESE6.4 kmh ESE 6.9 mph11.1 kmh 29.36 in994.2 mb 0.03 in0.8 mm 0.00 in0.0 mm 0.50 in12.7 mm
04:52 AM 37.9°F3.3°C 37.2°F2.9°C 97% 2.9 mph ESE4.7 kmh ESE 8.9 mph14.3 kmh 29.36 in994.2 mb 0.03 in0.8 mm 0.00 in0.0 mm 0.50 in12.7 mm
04:51 AM 37.9°F3.3°C 37.2°F2.9°C 97% 2.9 mph E4.7 kmh E 6.0 mph9.7 kmh 29.37 in994.6 mb 0.03 in0.8 mm 0.00 in0.0 mm 0.50 in12.7 mm
04:50 AM 37.8°F3.2°C 37.0°F2.8°C 97% 2.9 mph ENE4.7 kmh ENE 8.9 mph14.3 kmh 29.38 in994.9 mb 0.03 in0.8 mm 0.00 in0.0 mm 0.50 in12.7 mm
04:49 AM 37.8°F3.2°C 37.0°F2.8°C 97% 2.9 mph SE4.7 kmh SE 8.9 mph14.3 kmh 29.39 in995.3 mb 0.03 in0.8 mm 0.00 in0.0 mm 0.50 in12.7 mm
04:48 AM 37.8°F3.2°C 37.0°F2.8°C 97% 2.9 mph ESE4.7 kmh ESE 8.9 mph14.3 kmh 29.39 in995.3 mb 0.03 in0.8 mm 0.00 in0.0 mm 0.50 in12.7 mm
04:47 AM 37.8°F3.2°C 37.0°F2.8°C 97% 2.9 mph ESE4.7 kmh ESE 8.1 mph13.0 kmh 29.39 in995.3 mb 0.03 in0.8 mm 0.00 in0.0 mm 0.50 in12.7 mm
04:46 AM 37.8°F3.2°C 37.0°F2.8°C 97% 4.0 mph E6.4 kmh E 8.1 mph13.0 kmh 29.40 in995.6 mb 0.03 in0.8 mm 0.00 in0.0 mm 0.50 in12.7 mm
04:45 AM 37.8°F3.2°C 37.0°F2.8°C 97% 4.0 mph ENE6.4 kmh ENE 6.9 mph11.1 kmh 29.40 in995.6 mb 0.03 in0.8 mm 0.00 in0.0 mm 0.50 in12.7 mm
04:44 AM 37.8°F3.2°C 37.0°F2.8°C 97% 2.9 mph E4.7 kmh E 8.1 mph13.0 kmh 29.40 in995.6 mb 0.03 in0.8 mm 0.00 in0.0 mm 0.50 in12.7 mm
04:43 AM 37.8°F3.2°C 37.0°F2.8°C 97% 2.9 mph SE4.7 kmh SE 6.0 mph9.7 kmh 29.40 in995.6 mb 0.03 in0.8 mm 0.00 in0.0 mm 0.50 in12.7 mm
04:42 AM 37.8°F3.2°C 37.0°F2.8°C 97% 2.9 mph E4.7 kmh E 6.9 mph11.1 kmh 29.41 in995.9 mb 0.03 in0.8 mm 0.60 in15.2 mm 0.50 in12.7 mm
04:41 AM 37.8°F3.2°C 37.0°F2.8°C 97% 4.0 mph ESE6.4 kmh ESE 6.9 mph11.1 kmh 29.41 in995.9 mb 0.02 in0.5 mm 0.00 in0.0 mm 0.49 in12.4 mm
04:40 AM 37.8°F3.2°C 37.0°F2.8°C 97% 4.0 mph E6.4 kmh E 6.9 mph11.1 kmh 29.41 in995.9 mb 0.02 in0.5 mm 0.00 in0.0 mm 0.49 in12.4 mm
04:39 AM 37.8°F3.2°C 37.0°F2.8°C 97% 4.0 mph ESE6.4 kmh ESE 8.9 mph14.3 kmh 29.41 in995.9 mb 0.02 in0.5 mm 0.00 in0.0 mm 0.49 in12.4 mm
04:38 AM 37.8°F3.2°C 37.0°F2.8°C 97% 4.0 mph ENE6.4 kmh ENE 8.1 mph13.0 kmh 29.41 in995.9 mb 0.02 in0.5 mm 0.00 in0.0 mm 0.49 in12.4 mm
04:37 AM 37.8°F3.2°C 37.0°F2.8°C 97% 4.0 mph ESE6.4 kmh ESE 8.1 mph13.0 kmh 29.41 in995.9 mb 0.02 in0.5 mm 0.00 in0.0 mm 0.49 in12.4 mm
04:36 AM 37.8°F3.2°C 37.0°F2.8°C 97% 4.0 mph ESE6.4 kmh ESE 8.1 mph13.0 kmh 29.42 in996.3 mb 0.02 in0.5 mm 0.00 in0.0 mm 0.49 in12.4 mm
04:35 AM 37.6°F3.1°C 36.9°F2.7°C 97% 2.9 mph E4.7 kmh E 2.9 mph4.7 kmh 29.42 in996.3 mb 0.02 in0.5 mm 0.00 in0.0 mm 0.49 in12.4 mm
04:34 AM 37.6°F3.1°C 36.9°F2.7°C 97% 4.0 mph E6.4 kmh E 6.0 mph9.7 kmh 29.42 in996.3 mb 0.02 in0.5 mm 0.00 in0.0 mm 0.49 in12.4 mm
04:33 AM 37.6°F3.1°C 36.9°F2.7°C 97% 4.0 mph E6.4 kmh E 2.9 mph4.7 kmh 29.42 in996.3 mb 0.02 in0.5 mm 0.00 in0.0 mm 0.49 in12.4 mm
04:32 AM 37.6°F3.1°C 36.9°F2.7°C 97% 4.0 mph ESE6.4 kmh ESE 12.1 mph19.5 kmh 29.42 in996.3 mb 0.03 in0.8 mm 0.00 in0.0 mm 0.49 in12.4 mm
04:31 AM 37.6°F3.1°C 36.9°F2.7°C 97% 4.0 mph ESE6.4 kmh ESE 8.9 mph14.3 kmh 29.42 in996.3 mb 0.03 in0.8 mm 0.00 in0.0 mm 0.49 in12.4 mm
04:30 AM 37.6°F3.1°C 36.9°F2.7°C 97% 2.9 mph SE4.7 kmh SE 8.1 mph13.0 kmh 29.42 in996.3 mb 0.03 in0.8 mm 0.00 in0.0 mm 0.49 in12.4 mm
04:29 AM 37.6°F3.1°C 36.9°F2.7°C 97% 2.9 mph E4.7 kmh E 6.9 mph11.1 kmh 29.42 in996.3 mb 0.03 in0.8 mm 0.00 in0.0 mm 0.49 in12.4 mm
04:28 AM 37.6°F3.1°C 36.9°F2.7°C 97% 2.9 mph E4.7 kmh E 4.0 mph6.4 kmh 29.42 in996.3 mb 0.03 in0.8 mm 0.00 in0.0 mm 0.49 in12.4 mm
04:27 AM 37.6°F3.1°C 36.9°F2.7°C 97% 2.9 mph E4.7 kmh E 9.0 mph14.5 kmh 29.42 in996.3 mb 0.03 in0.8 mm 0.00 in0.0 mm 0.49 in12.4 mm
04:26 AM 37.6°F3.1°C 36.9°F2.7°C 97% 2.9 mph SE4.7 kmh SE 9.0 mph14.5 kmh 29.43 in996.6 mb 0.03 in0.8 mm 0.00 in0.0 mm 0.49 in12.4 mm
04:25 AM 37.6°F3.1°C 36.9°F2.7°C 97% 2.9 mph ESE4.7 kmh ESE 6.0 mph9.7 kmh 29.43 in996.6 mb 0.04 in1.0 mm 0.00 in0.0 mm 0.49 in12.4 mm
04:24 AM 37.6°F3.1°C 36.9°F2.7°C 97% 2.9 mph SE4.7 kmh SE 6.0 mph9.7 kmh 29.43 in996.6 mb 0.04 in1.0 mm 0.00 in0.0 mm 0.49 in12.4 mm
04:23 AM 37.6°F3.1°C 36.9°F2.7°C 97% 2.9 mph SE4.7 kmh SE 4.9 mph7.9 kmh 29.43 in996.6 mb 0.04 in1.0 mm 0.00 in0.0 mm 0.49 in12.4 mm
04:22 AM 37.6°F3.1°C 36.9°F2.7°C 97% 2.9 mph SE4.7 kmh SE 8.1 mph13.0 kmh 29.43 in996.6 mb 0.04 in1.0 mm 0.00 in0.0 mm 0.49 in12.4 mm
04:21 AM 37.6°F3.1°C 36.9°F2.7°C 97% 4.0 mph SE6.4 kmh SE 4.0 mph6.4 kmh 29.43 in996.6 mb 0.04 in1.0 mm 0.00 in0.0 mm 0.49 in12.4 mm
04:20 AM 37.6°F3.1°C 36.9°F2.7°C 97% 4.0 mph E6.4 kmh E 4.0 mph6.4 kmh 29.44 in997.0 mb 0.04 in1.0 mm 0.00 in0.0 mm 0.49 in12.4 mm
04:19 AM 37.6°F3.1°C 36.9°F2.7°C 97% 4.0 mph E6.4 kmh E 6.0 mph9.7 kmh 29.44 in997.0 mb 0.05 in1.3 mm 0.00 in0.0 mm 0.49 in12.4 mm
04:18 AM 37.6°F3.1°C 36.9°F2.7°C 97% 4.0 mph E6.4 kmh E 6.0 mph9.7 kmh 29.44 in997.0 mb 0.05 in1.3 mm 0.00 in0.0 mm 0.49 in12.4 mm
04:17 AM 37.6°F3.1°C 36.9°F2.7°C 97% 4.0 mph ESE6.4 kmh ESE 8.9 mph14.3 kmh 29.44 in997.0 mb 0.05 in1.3 mm 0.00 in0.0 mm 0.49 in12.4 mm
04:16 AM 37.6°F3.1°C 36.9°F2.7°C 97% 4.0 mph ESE6.4 kmh ESE 8.9 mph14.3 kmh 29.44 in997.0 mb 0.05 in1.3 mm 0.00 in0.0 mm 0.49 in12.4 mm
04:15 AM 37.6°F3.1°C 36.9°F2.7°C 97% 2.9 mph ESE4.7 kmh ESE 8.9 mph14.3 kmh 29.44 in997.0 mb 0.06 in1.5 mm 0.00 in0.0 mm 0.49 in12.4 mm
04:14 AM 37.6°F3.1°C 36.9°F2.7°C 97% 2.9 mph SE4.7 kmh SE 8.9 mph14.3 kmh 29.44 in997.0 mb 0.06 in1.5 mm 0.00 in0.0 mm 0.49 in12.4 mm
04:13 AM 37.6°F3.1°C 36.9°F2.7°C 97% 2.9 mph E4.7 kmh E 10.1 mph16.3 kmh 29.45 in997.3 mb 0.07 in1.8 mm 0.00 in0.0 mm 0.49 in12.4 mm
04:12 AM 37.6°F3.1°C 36.9°F2.7°C 97% 2.9 mph NE4.7 kmh NE 10.1 mph16.3 kmh 29.44 in997.0 mb 0.07 in1.8 mm 0.60 in15.2 mm 0.49 in12.4 mm
04:11 AM 37.6°F3.1°C 36.9°F2.7°C 97% 2.9 mph ENE4.7 kmh ENE 6.9 mph11.1 kmh 29.45 in997.3 mb 0.06 in1.5 mm 0.00 in0.0 mm 0.49 in12.4 mm
04:10 AM 37.6°F3.1°C 36.9°F2.7°C 97% 2.9 mph E4.7 kmh E 6.9 mph11.1 kmh 29.45 in997.3 mb 0.06 in1.5 mm 0.00 in0.0 mm 0.48 in12.2 mm
04:09 AM 37.6°F3.1°C 36.9°F2.7°C 97% 4.0 mph E6.4 kmh E 4.0 mph6.4 kmh 29.45 in997.3 mb 0.07 in1.8 mm 0.00 in0.0 mm 0.48 in12.2 mm
04:08 AM 37.6°F3.1°C 36.9°F2.7°C 97% 4.0 mph SSE6.4 kmh SSE 6.9 mph11.1 kmh 29.45 in997.3 mb 0.07 in1.8 mm 0.00 in0.0 mm 0.48 in12.2 mm
04:07 AM 37.6°F3.1°C 36.9°F2.7°C 97% 4.0 mph E6.4 kmh E 8.9 mph14.3 kmh 29.45 in997.3 mb 0.07 in1.8 mm 0.00 in0.0 mm 0.48 in12.2 mm
04:06 AM 37.6°F3.1°C 36.9°F2.7°C 97% 4.0 mph SSE6.4 kmh SSE 4.9 mph7.9 kmh 29.45 in997.3 mb 0.08 in2.0 mm 0.00 in0.0 mm 0.48 in12.2 mm
04:05 AM 37.6°F3.1°C 36.9°F2.7°C 97% 4.0 mph SW6.4 kmh SW 4.0 mph6.4 kmh 29.45 in997.3 mb 0.08 in2.0 mm 0.00 in0.0 mm 0.48 in12.2 mm
04:04 AM 37.6°F3.1°C 36.9°F2.7°C 97% 4.0 mph SE6.4 kmh SE 4.9 mph7.9 kmh 29.45 in997.3 mb 0.08 in2.0 mm 0.00 in0.0 mm 0.48 in12.2 mm
04:03 AM 37.6°F3.1°C 36.9°F2.7°C 97% 4.0 mph SE6.4 kmh SE 6.0 mph9.7 kmh 29.45 in997.3 mb 0.08 in2.0 mm 0.00 in0.0 mm 0.48 in12.2 mm
04:02 AM 37.6°F3.1°C 36.9°F2.7°C 97% 4.0 mph ESE6.4 kmh ESE 8.9 mph14.3 kmh 29.45 in997.3 mb 0.09 in2.3 mm 0.00 in0.0 mm 0.48 in12.2 mm
04:01 AM 37.6°F3.1°C 36.9°F2.7°C 97% 4.0 mph E6.4 kmh E 13.0 mph20.9 kmh 29.45 in997.3 mb 0.09 in2.3 mm 0.00 in0.0 mm 0.48 in12.2 mm
04:00 AM 37.6°F3.1°C 36.9°F2.7°C 97% 4.0 mph E6.4 kmh E 11.0 mph17.7 kmh 29.45 in997.3 mb 0.09 in2.3 mm 0.00 in0.0 mm 0.48 in12.2 mm
03:59 AM 37.6°F3.1°C 36.9°F2.7°C 97% 2.9 mph E4.7 kmh E 8.1 mph13.0 kmh 29.45 in997.3 mb 0.09 in2.3 mm 0.00 in0.0 mm 0.48 in12.2 mm
03:58 AM 37.6°F3.1°C 36.9°F2.7°C 97% 2.9 mph ESE4.7 kmh ESE 10.1 mph16.3 kmh 29.45 in997.3 mb 0.09 in2.3 mm 0.00 in0.0 mm 0.48 in12.2 mm
03:57 AM 37.6°F3.1°C 36.9°F2.7°C 97% 4.0 mph ENE6.4 kmh ENE 6.9 mph11.1 kmh 29.46 in997.6 mb 0.09 in2.3 mm 0.60 in15.2 mm 0.48 in12.2 mm
03:56 AM 37.6°F3.1°C 36.9°F2.7°C 97% 4.0 mph ESE6.4 kmh ESE 6.0 mph9.7 kmh 29.46 in997.6 mb 0.08 in2.0 mm 0.00 in0.0 mm 0.48 in12.2 mm
03:55 AM 37.6°F3.1°C 36.9°F2.7°C 97% 4.0 mph E6.4 kmh E 8.1 mph13.0 kmh 29.46 in997.6 mb 0.09 in2.3 mm 0.00 in0.0 mm 0.47 in11.9 mm
03:54 AM 37.6°F3.1°C 36.9°F2.7°C 97% 2.9 mph ESE4.7 kmh ESE 10.1 mph16.3 kmh 29.46 in997.6 mb 0.09 in2.3 mm 0.00 in0.0 mm 0.47 in11.9 mm
03:53 AM 37.6°F3.1°C 36.9°F2.7°C 97% 2.9 mph ENE4.7 kmh ENE 6.9 mph11.1 kmh 29.46 in997.6 mb 0.09 in2.3 mm 0.00 in0.0 mm 0.47 in11.9 mm
03:52 AM 37.6°F3.1°C 36.9°F2.7°C 97% 4.0 mph E6.4 kmh E 6.9 mph11.1 kmh 29.45 in997.3 mb 0.09 in2.3 mm 0.00 in0.0 mm 0.47 in11.9 mm
03:51 AM 37.6°F3.1°C 36.9°F2.7°C 97% 4.0 mph ESE6.4 kmh ESE 6.9 mph11.1 kmh 29.45 in997.3 mb 0.09 in2.3 mm 0.00 in0.0 mm 0.47 in11.9 mm
03:50 AM 37.6°F3.1°C 36.9°F2.7°C 97% 4.0 mph E6.4 kmh E 8.1 mph13.0 kmh 29.45 in997.3 mb 0.09 in2.3 mm 0.00 in0.0 mm 0.47 in11.9 mm
03:49 AM 37.6°F3.1°C 36.9°F2.7°C 97% 4.0 mph SE6.4 kmh SE 4.9 mph7.9 kmh 29.45 in997.3 mb 0.09 in2.3 mm 0.00 in0.0 mm 0.47 in11.9 mm
03:48 AM 37.6°F3.1°C 36.9°F2.7°C 97% 4.0 mph ESE6.4 kmh ESE 14.1 mph22.7 kmh 29.45 in997.3 mb 0.09 in2.3 mm 0.00 in0.0 mm 0.47 in11.9 mm
03:47 AM 37.6°F3.1°C 36.9°F2.7°C 97% 4.0 mph ESE6.4 kmh ESE 10.1 mph16.3 kmh 29.45 in997.3 mb 0.09 in2.3 mm 0.00 in0.0 mm 0.47 in11.9 mm
03:46 AM 37.6°F3.1°C 36.9°F2.7°C 97% 4.0 mph ESE6.4 kmh ESE 6.9 mph11.1 kmh 29.45 in997.3 mb 0.10 in2.5 mm 0.00 in0.0 mm 0.47 in11.9 mm
03:45 AM 37.6°F3.1°C 36.9°F2.7°C 97% 4.0 mph E6.4 kmh E 8.1 mph13.0 kmh 29.45 in997.3 mb 0.10 in2.5 mm 0.00 in0.0 mm 0.47 in11.9 mm
03:44 AM 37.6°F3.1°C 36.9°F2.7°C 97% 4.0 mph ESE6.4 kmh ESE 6.9 mph11.1 kmh 29.45 in997.3 mb 0.10 in2.5 mm 0.00 in0.0 mm 0.47 in11.9 mm
03:43 AM 37.6°F3.1°C 36.9°F2.7°C 97% 4.0 mph SE6.4 kmh SE 8.1 mph13.0 kmh 29.45 in997.3 mb 0.10 in2.5 mm 0.00 in0.0 mm 0.47 in11.9 mm
03:42 AM 37.6°F3.1°C 36.9°F2.7°C 97% 2.9 mph SE4.7 kmh SE 8.9 mph14.3 kmh 29.45 in997.3 mb 0.10 in2.5 mm 0.00 in0.0 mm 0.47 in11.9 mm
03:41 AM 37.4°F3.0°C 36.7°F2.6°C 97% 2.9 mph SE4.7 kmh SE 11.0 mph17.7 kmh 29.45 in997.3 mb 0.10 in2.5 mm 0.00 in0.0 mm 0.47 in11.9 mm
03:40 AM 37.4°F3.0°C 36.7°F2.6°C 97% 4.0 mph E6.4 kmh E 6.0 mph9.7 kmh 29.46 in997.6 mb 0.10 in2.5 mm 0.00 in0.0 mm 0.47 in11.9 mm
03:39 AM 37.4°F3.0°C 36.7°F2.6°C 97% 4.0 mph E6.4 kmh E 8.9 mph14.3 kmh 29.46 in997.6 mb 0.10 in2.5 mm 0.00 in0.0 mm 0.47 in11.9 mm
03:38 AM 37.4°F3.0°C 36.7°F2.6°C 97% 4.0 mph E6.4 kmh E 8.1 mph13.0 kmh 29.46 in997.6 mb 0.10 in2.5 mm 0.00 in0.0 mm 0.47 in11.9 mm
03:37 AM 37.4°F3.0°C 36.7°F2.6°C 97% 4.0 mph E6.4 kmh E 4.0 mph6.4 kmh 29.47 in998.0 mb 0.11 in2.8 mm 0.00 in0.0 mm 0.47 in11.9 mm
03:36 AM 37.4°F3.0°C 36.7°F2.6°C 97% 4.0 mph ENE6.4 kmh ENE 6.9 mph11.1 kmh 29.47 in998.0 mb 0.11 in2.8 mm 0.00 in0.0 mm 0.47 in11.9 mm
03:35 AM 37.4°F3.0°C 36.7°F2.6°C 97% 4.0 mph ESE6.4 kmh ESE 4.9 mph7.9 kmh 29.47 in998.0 mb 0.11 in2.8 mm 0.00 in0.0 mm 0.47 in11.9 mm
03:34 AM 37.4°F3.0°C 36.7°F2.6°C 97% 4.0 mph E6.4 kmh E 4.9 mph7.9 kmh 29.47 in998.0 mb 0.11 in2.8 mm 0.00 in0.0 mm 0.47 in11.9 mm
03:33 AM 37.4°F3.0°C 36.7°F2.6°C 97% 4.0 mph NE6.4 kmh NE 4.9 mph7.9 kmh 29.47 in998.0 mb 0.11 in2.8 mm 0.60 in15.2 mm 0.47 in11.9 mm
03:32 AM 37.2°F2.9°C 36.5°F2.5°C 97% 4.0 mph E6.4 kmh E 8.1 mph13.0 kmh 29.47 in998.0 mb 0.10 in2.5 mm 0.00 in0.0 mm 0.46 in11.7 mm
03:31 AM 37.2°F2.9°C 36.5°F2.5°C 97% 4.0 mph ESE6.4 kmh ESE 8.9 mph14.3 kmh 29.47 in998.0 mb 0.11 in2.8 mm 0.00 in0.0 mm 0.46 in11.7 mm
03:30 AM 37.2°F2.9°C 36.5°F2.5°C 97% 4.0 mph E6.4 kmh E 12.1 mph19.5 kmh 29.47 in998.0 mb 0.11 in2.8 mm 0.00 in0.0 mm 0.46 in11.7 mm
03:29 AM 37.2°F2.9°C 36.5°F2.5°C 97% 4.0 mph E6.4 kmh E 8.9 mph14.3 kmh 29.48 in998.3 mb 0.11 in2.8 mm 0.00 in0.0 mm 0.46 in11.7 mm
03:28 AM 37.2°F2.9°C 36.5°F2.5°C 97% 4.0 mph ESE6.4 kmh ESE 8.9 mph14.3 kmh 29.48 in998.3 mb 0.11 in2.8 mm 0.00 in0.0 mm 0.46 in11.7 mm
03:27 AM 37.2°F2.9°C 36.5°F2.5°C 97% 4.0 mph E6.4 kmh E 8.9 mph14.3 kmh 29.48 in998.3 mb 0.11 in2.8 mm 0.00 in0.0 mm 0.46 in11.7 mm
03:26 AM 37.2°F2.9°C 36.5°F2.5°C 97% 4.0 mph S6.4 kmh S 6.0 mph9.7 kmh 29.49 in998.6 mb 0.11 in2.8 mm 0.60 in15.2 mm 0.46 in11.7 mm
03:25 AM 37.2°F2.9°C 36.5°F2.5°C 97% 4.0 mph E6.4 kmh E 6.0 mph9.7 kmh 29.49 in998.6 mb 0.10 in2.5 mm 0.00 in0.0 mm 0.46 in11.7 mm
03:24 AM 37.2°F2.9°C 36.5°F2.5°C 97% 4.0 mph E6.4 kmh E 8.1 mph13.0 kmh 29.49 in998.6 mb 0.11 in2.8 mm 0.00 in0.0 mm 0.45 in11.4 mm
03:23 AM 37.2°F2.9°C 36.5°F2.5°C 97% 4.0 mph E6.4 kmh E 11.0 mph17.7 kmh 29.49 in998.6 mb 0.11 in2.8 mm 0.00 in0.0 mm 0.45 in11.4 mm
03:22 AM 37.2°F2.9°C 36.5°F2.5°C 97% 4.0 mph E6.4 kmh E 11.0 mph17.7 kmh 29.50 in999.0 mb 0.11 in2.8 mm 0.00 in0.0 mm 0.45 in11.4 mm
03:21 AM 37.2°F2.9°C 36.5°F2.5°C 97% 4.0 mph ESE6.4 kmh ESE 11.0 mph17.7 kmh 29.50 in999.0 mb 0.11 in2.8 mm 0.00 in0.0 mm 0.45 in11.4 mm
03:20 AM 37.2°F2.9°C 36.5°F2.5°C 97% 2.9 mph ESE4.7 kmh ESE 10.1 mph16.3 kmh 29.51 in999.3 mb 0.11 in2.8 mm 0.60 in15.2 mm 0.45 in11.4 mm
03:19 AM 37.2°F2.9°C 36.5°F2.5°C 97% 2.9 mph ESE4.7 kmh ESE 11.0 mph17.7 kmh 29.51 in999.3 mb 0.10 in2.5 mm 0.00 in0.0 mm 0.44 in11.2 mm
03:18 AM 37.2°F2.9°C 36.5°F2.5°C 97% 2.9 mph SE4.7 kmh SE 8.1 mph13.0 kmh 29.51 in999.3 mb 0.10 in2.5 mm 0.00 in0.0 mm 0.44 in11.2 mm
03:17 AM 37.2°F2.9°C 36.5°F2.5°C 97% 2.9 mph E4.7 kmh E 4.9 mph7.9 kmh 29.51 in999.3 mb 0.10 in2.5 mm 0.60 in15.2 mm 0.44 in11.2 mm
03:16 AM 37.2°F2.9°C 36.5°F2.5°C 97% 2.9 mph E4.7 kmh E 8.9 mph14.3 kmh 29.51 in999.3 mb 0.09 in2.3 mm 0.00 in0.0 mm 0.44 in11.2 mm
03:15 AM 37.2°F2.9°C 36.5°F2.5°C 97% 2.9 mph E4.7 kmh E 8.9 mph14.3 kmh 29.51 in999.3 mb 0.09 in2.3 mm 0.00 in0.0 mm 0.43 in10.9 mm
03:14 AM 37.2°F2.9°C 36.5°F2.5°C 97% 2.9 mph E4.7 kmh E 8.1 mph13.0 kmh 29.52 in999.7 mb 0.10 in2.5 mm 0.60 in15.2 mm 0.43 in10.9 mm
03:13 AM 37.2°F2.9°C 36.5°F2.5°C 97% 2.9 mph ESE4.7 kmh ESE 9.0 mph14.5 kmh 29.52 in999.7 mb 0.09 in2.3 mm 0.00 in0.0 mm 0.43 in10.9 mm
03:12 AM 37.2°F2.9°C 36.5°F2.5°C 97% 2.9 mph S4.7 kmh S 2.9 mph4.7 kmh 29.52 in999.7 mb 0.09 in2.3 mm 0.00 in0.0 mm 0.42 in10.7 mm
03:11 AM 37.2°F2.9°C 36.5°F2.5°C 97% 4.0 mph S6.4 kmh S 4.9 mph7.9 kmh 29.53 in1000.0 mb 0.09 in2.3 mm 0.60 in15.2 mm 0.42 in10.7 mm
03:10 AM 37.0°F2.8°C 36.3°F2.4°C 97% 4.0 mph S6.4 kmh S 8.1 mph13.0 kmh 29.52 in999.7 mb 0.08 in2.0 mm 0.00 in0.0 mm 0.42 in10.7 mm
03:09 AM 37.0°F2.8°C 36.3°F2.4°C 97% 4.0 mph S6.4 kmh S 6.0 mph9.7 kmh 29.52 in999.7 mb 0.08 in2.0 mm 0.00 in0.0 mm 0.41 in10.4 mm
03:08 AM 37.2°F2.9°C 36.5°F2.5°C 97% 4.9 mph SE7.9 kmh SE 6.9 mph11.1 kmh 29.52 in999.7 mb 0.09 in2.3 mm 0.60 in15.2 mm 0.41 in10.4 mm
03:07 AM 37.2°F2.9°C 36.5°F2.5°C 97% 6.0 mph ESE9.7 kmh ESE 6.0 mph9.7 kmh 29.52 in999.7 mb 0.08 in2.0 mm 0.00 in0.0 mm 0.41 in10.4 mm
03:06 AM 37.2°F2.9°C 36.5°F2.5°C 97% 6.0 mph NE9.7 kmh NE 6.0 mph9.7 kmh 29.51 in999.3 mb 0.08 in2.0 mm 0.00 in0.0 mm 0.40 in10.2 mm
03:05 AM 37.2°F2.9°C 36.5°F2.5°C 97% 6.0 mph E9.7 kmh E 6.0 mph9.7 kmh 29.51 in999.3 mb 0.08 in2.0 mm 0.00 in0.0 mm 0.40 in10.2 mm
03:04 AM 37.2°F2.9°C 36.5°F2.5°C 97% 6.0 mph ENE9.7 kmh ENE 6.0 mph9.7 kmh 29.52 in999.7 mb 0.08 in2.0 mm 0.00 in0.0 mm 0.40 in10.2 mm
03:03 AM 37.2°F2.9°C 36.5°F2.5°C 97% 6.9 mph ENE11.1 kmh ENE 6.0 mph9.7 kmh 29.52 in999.7 mb 0.08 in2.0 mm 0.60 in15.2 mm 0.40 in10.2 mm
03:02 AM 37.2°F2.9°C 36.5°F2.5°C 97% 6.9 mph E11.1 kmh E 6.0 mph9.7 kmh 29.52 in999.7 mb 0.07 in1.8 mm 0.00 in0.0 mm 0.40 in10.2 mm
03:01 AM 37.2°F2.9°C 36.5°F2.5°C 97% 6.9 mph ESE11.1 kmh ESE 14.1 mph22.7 kmh 29.52 in999.7 mb 0.07 in1.8 mm 0.00 in0.0 mm 0.39 in9.9 mm
03:00 AM 37.2°F2.9°C 36.5°F2.5°C 97% 6.9 mph ESE11.1 kmh ESE 14.1 mph22.7 kmh 29.52 in999.7 mb 0.07 in1.8 mm 0.00 in0.0 mm 0.39 in9.9 mm
02:59 AM 37.2°F2.9°C 36.5°F2.5°C 97% 6.0 mph SE9.7 kmh SE 16.1 mph25.9 kmh 29.52 in999.7 mb 0.07 in1.8 mm 0.00 in0.0 mm 0.39 in9.9 mm
02:58 AM 37.2°F2.9°C 36.5°F2.5°C 97% 6.0 mph E9.7 kmh E 19.0 mph30.6 kmh 29.52 in999.7 mb 0.07 in1.8 mm 0.00 in0.0 mm 0.39 in9.9 mm
02:57 AM 37.0°F2.8°C 36.3°F2.4°C 97% 4.9 mph E7.9 kmh E 19.0 mph30.6 kmh 29.52 in999.7 mb 0.07 in1.8 mm 0.00 in0.0 mm 0.39 in9.9 mm
02:56 AM 37.0°F2.8°C 36.3°F2.4°C 97% 4.9 mph E7.9 kmh E 8.9 mph14.3 kmh 29.52 in999.7 mb 0.07 in1.8 mm 0.60 in15.2 mm 0.39 in9.9 mm
02:55 AM 37.0°F2.8°C 36.3°F2.4°C 97% 4.9 mph ENE7.9 kmh ENE 10.1 mph16.3 kmh 29.53 in1000.0 mb 0.06 in1.5 mm 0.00 in0.0 mm 0.39 in9.9 mm
02:54 AM 37.0°F2.8°C 36.3°F2.4°C 97% 4.9 mph E7.9 kmh E 10.1 mph16.3 kmh 29.54 in1000.3 mb 0.06 in1.5 mm 0.00 in0.0 mm 0.38 in9.7 mm
02:53 AM 37.0°F2.8°C 36.3°F2.4°C 97% 4.9 mph S7.9 kmh S 12.1 mph19.5 kmh 29.54 in1000.3 mb 0.07 in1.8 mm 0.00 in0.0 mm 0.38 in9.7 mm
02:52 AM 37.0°F2.8°C 36.3°F2.4°C 97% 4.0 mph SSE6.4 kmh SSE 12.1 mph19.5 kmh 29.53 in1000.0 mb 0.07 in1.8 mm 0.00 in0.0 mm 0.38 in9.7 mm
02:51 AM 37.0°F2.8°C 36.3°F2.4°C 97% 4.9 mph S7.9 kmh S 8.9 mph14.3 kmh 29.52 in999.7 mb 0.07 in1.8 mm 0.00 in0.0 mm 0.38 in9.7 mm
02:50 AM 36.9°F2.7°C 36.1°F2.3°C 97% 4.9 mph NE7.9 kmh NE 6.9 mph11.1 kmh 29.52 in999.7 mb 0.07 in1.8 mm 0.00 in0.0 mm 0.38 in9.7 mm
02:49 AM 36.9°F2.7°C 36.1°F2.3°C 97% 4.9 mph NE7.9 kmh NE 8.1 mph13.0 kmh 29.53 in1000.0 mb 0.07 in1.8 mm 0.00 in0.0 mm 0.38 in9.7 mm
02:48 AM 36.9°F2.7°C 36.1°F2.3°C 97% 4.9 mph SE7.9 kmh SE 10.1 mph16.3 kmh 29.54 in1000.3 mb 0.07 in1.8 mm 0.00 in0.0 mm 0.38 in9.7 mm
02:47 AM 36.9°F2.7°C 36.1°F2.3°C 97% 4.9 mph ESE7.9 kmh ESE 10.1 mph16.3 kmh 29.54 in1000.3 mb 0.07 in1.8 mm 0.60 in15.2 mm 0.38 in9.7 mm
02:46 AM 36.9°F2.7°C 36.1°F2.3°C 97% 4.9 mph ENE7.9 kmh ENE 10.1 mph16.3 kmh 29.54 in1000.3 mb 0.06 in1.5 mm 0.00 in0.0 mm 0.38 in9.7 mm
02:45 AM 36.9°F2.7°C 36.1°F2.3°C 97% 4.9 mph SE7.9 kmh SE 10.1 mph16.3 kmh 29.54 in1000.3 mb 0.06 in1.5 mm 0.00 in0.0 mm 0.37 in9.4 mm
02:44 AM 36.9°F2.7°C 36.1°F2.3°C 97% 6.0 mph ENE9.7 kmh ENE 4.9 mph7.9 kmh 29.54 in1000.3 mb 0.06 in1.5 mm 0.00 in0.0 mm 0.37 in9.4 mm
02:43 AM 36.9°F2.7°C 36.1°F2.3°C 97% 6.0 mph ENE9.7 kmh ENE 6.0 mph9.7 kmh 29.54 in1000.3 mb 0.07 in1.8 mm 0.00 in0.0 mm 0.37 in9.4 mm
02:42 AM 36.9°F2.7°C 36.1°F2.3°C 97% 6.0 mph ENE9.7 kmh ENE 10.1 mph16.3 kmh 29.55 in1000.7 mb 0.07 in1.8 mm 0.00 in0.0 mm 0.37 in9.4 mm
02:41 AM 36.9°F2.7°C 36.1°F2.3°C 97% 6.0 mph E9.7 kmh E 14.1 mph22.7 kmh 29.55 in1000.7 mb 0.07 in1.8 mm 0.00 in0.0 mm 0.37 in9.4 mm
02:40 AM 36.9°F2.7°C 36.1°F2.3°C 97% 6.0 mph ESE9.7 kmh ESE 8.1 mph13.0 kmh 29.55 in1000.7 mb 0.07 in1.8 mm 0.00 in0.0 mm 0.37 in9.4 mm
02:39 AM 36.9°F2.7°C 36.1°F2.3°C 97% 6.0 mph E9.7 kmh E 6.9 mph11.1 kmh 29.55 in1000.7 mb 0.07 in1.8 mm 0.00 in0.0 mm 0.37 in9.4 mm
02:38 AM 36.9°F2.7°C 36.1°F2.3°C 97% 6.0 mph E9.7 kmh E 12.1 mph19.5 kmh 29.56 in1001.0 mb 0.07 in1.8 mm 0.60 in15.2 mm 0.37 in9.4 mm
02:37 AM 36.9°F2.7°C 36.1°F2.3°C 97% 6.0 mph E9.7 kmh E 12.1 mph19.5 kmh 29.56 in1001.0 mb 0.06 in1.5 mm 0.00 in0.0 mm 0.37 in9.4 mm
02:36 AM 36.7°F2.6°C 36.0°F2.2°C 97% 4.9 mph ENE7.9 kmh ENE 14.1 mph22.7 kmh 29.57 in1001.4 mb 0.06 in1.5 mm 0.00 in0.0 mm 0.36 in9.1 mm
02:35 AM 36.7°F2.6°C 36.0°F2.2°C 97% 4.0 mph SSE6.4 kmh SSE 11.0 mph17.7 kmh 29.57 in1001.4 mb 0.07 in1.8 mm 0.00 in0.0 mm 0.36 in9.1 mm
02:34 AM 36.7°F2.6°C 36.0°F2.2°C 97% 4.0 mph SSE6.4 kmh SSE 13.0 mph20.9 kmh 29.57 in1001.4 mb 0.07 in1.8 mm 0.00 in0.0 mm 0.36 in9.1 mm
02:33 AM 36.7°F2.6°C 36.0°F2.2°C 97% 4.0 mph SSE6.4 kmh SSE 8.1 mph13.0 kmh 29.57 in1001.4 mb 0.07 in1.8 mm 0.00 in0.0 mm 0.36 in9.1 mm
02:32 AM 36.5°F2.5°C 35.8°F2.1°C 97% 2.9 mph S4.7 kmh S 13.0 mph20.9 kmh 29.57 in1001.4 mb 0.07 in1.8 mm 0.60 in15.2 mm 0.36 in9.1 mm
02:31 AM 36.5°F2.5°C 35.8°F2.1°C 97% 2.9 mph SSE4.7 kmh SSE 4.9 mph7.9 kmh 29.56 in1001.0 mb 0.06 in1.5 mm 0.00 in0.0 mm 0.36 in9.1 mm
02:30 AM 36.5°F2.5°C 35.8°F2.1°C 97% 2.9 mph E4.7 kmh E 6.9 mph11.1 kmh 29.56 in1001.0 mb 0.06 in1.5 mm 0.00 in0.0 mm 0.35 in8.9 mm
02:29 AM 36.5°F2.5°C 35.8°F2.1°C 97% 2.9 mph ESE4.7 kmh ESE 6.0 mph9.7 kmh 29.56 in1001.0 mb 0.07 in1.8 mm 0.00 in0.0 mm 0.35 in8.9 mm
02:28 AM 36.5°F2.5°C 35.8°F2.1°C 97% 4.0 mph E6.4 kmh E 10.1 mph16.3 kmh 29.56 in1001.0 mb 0.07 in1.8 mm 0.00 in0.0 mm 0.35 in8.9 mm
02:27 AM 36.5°F2.5°C 35.8°F2.1°C 97% 2.9 mph E4.7 kmh E 6.9 mph11.1 kmh 29.56 in1001.0 mb 0.07 in1.8 mm 0.00 in0.0 mm 0.35 in8.9 mm
02:26 AM 36.5°F2.5°C 35.8°F2.1°C 97% 2.9 mph ENE4.7 kmh ENE 6.9 mph11.1 kmh 29.57 in1001.4 mb 0.07 in1.8 mm 0.00 in0.0 mm 0.35 in8.9 mm
02:25 AM 36.5°F2.5°C 35.8°F2.1°C 97% 4.0 mph E6.4 kmh E 4.0 mph6.4 kmh 29.57 in1001.4 mb 0.07 in1.8 mm 0.00 in0.0 mm 0.34 in8.6 mm
02:24 AM 36.5°F2.5°C 35.8°F2.1°C 97% 4.0 mph E6.4 kmh E 10.1 mph16.3 kmh 29.57 in1001.4 mb 0.07 in1.8 mm 0.00 in0.0 mm 0.34 in8.6 mm
02:23 AM 36.5°F2.5°C 35.8°F2.1°C 97% 4.0 mph ENE6.4 kmh ENE 8.1 mph13.0 kmh 29.57 in1001.4 mb 0.08 in2.0 mm 0.00 in0.0 mm 0.34 in8.6 mm
02:22 AM 36.5°F2.5°C 35.8°F2.1°C 97% 4.0 mph ENE6.4 kmh ENE 6.9 mph11.1 kmh 29.58 in1001.7 mb 0.08 in2.0 mm 0.00 in0.0 mm 0.34 in8.6 mm
02:21 AM 36.7°F2.6°C 36.0°F2.2°C 97% 4.0 mph E6.4 kmh E 13.0 mph20.9 kmh 29.58 in1001.7 mb 0.08 in2.0 mm 0.00 in0.0 mm 0.34 in8.6 mm
02:20 AM 36.7°F2.6°C 36.0°F2.2°C 97% 4.0 mph SE6.4 kmh SE 12.1 mph19.5 kmh 29.58 in1001.7 mb 0.08 in2.0 mm 0.00 in0.0 mm 0.34 in8.6 mm
02:19 AM 36.7°F2.6°C 35.6°F2.0°C 96% 4.0 mph ENE6.4 kmh ENE 11.0 mph17.7 kmh 29.58 in1001.7 mb 0.08 in2.0 mm 0.00 in0.0 mm 0.34 in8.6 mm
02:18 AM 36.7°F2.6°C 35.6°F2.0°C 96% 4.0 mph E6.4 kmh E 11.0 mph17.7 kmh 29.58 in1001.7 mb 0.09 in2.3 mm 0.00 in0.0 mm 0.34 in8.6 mm
02:17 AM 36.7°F2.6°C 35.6°F2.0°C 96% 4.0 mph E6.4 kmh E 4.0 mph6.4 kmh 29.58 in1001.7 mb 0.09 in2.3 mm 0.00 in0.0 mm 0.34 in8.6 mm
02:16 AM 36.7°F2.6°C 35.6°F2.0°C 96% 4.0 mph E6.4 kmh E 8.9 mph14.3 kmh 29.59 in1002.0 mb 0.09 in2.3 mm 0.00 in0.0 mm 0.34 in8.6 mm
02:15 AM 36.7°F2.6°C 35.6°F2.0°C 96% 4.0 mph E6.4 kmh E 10.1 mph16.3 kmh 29.59 in1002.0 mb 0.10 in2.5 mm 0.60 in15.2 mm 0.34 in8.6 mm
02:14 AM 36.7°F2.6°C 36.0°F2.2°C 97% 4.0 mph E6.4 kmh E 8.1 mph13.0 kmh 29.60 in1002.4 mb 0.09 in2.3 mm 0.00 in0.0 mm 0.33 in8.4 mm
02:13 AM 36.7°F2.6°C 36.0°F2.2°C 97% 2.9 mph ESE4.7 kmh ESE 8.1 mph13.0 kmh 29.60 in1002.4 mb 0.09 in2.3 mm 0.00 in0.0 mm 0.33 in8.4 mm
02:12 AM 36.7°F2.6°C 36.0°F2.2°C 97% 2.9 mph SSE4.7 kmh SSE 8.1 mph13.0 kmh 29.60 in1002.4 mb 0.10 in2.5 mm 0.00 in0.0 mm 0.33 in8.4 mm
02:11 AM 36.7°F2.6°C 36.0°F2.2°C 97% 2.9 mph S4.7 kmh S 8.1 mph13.0 kmh 29.60 in1002.4 mb 0.10 in2.5 mm 0.00 in0.0 mm 0.33 in8.4 mm
02:10 AM 36.7°F2.6°C 36.0°F2.2°C 97% 2.9 mph SE4.7 kmh SE 4.9 mph7.9 kmh 29.60 in1002.4 mb 0.11 in2.8 mm 0.00 in0.0 mm 0.33 in8.4 mm
02:09 AM 36.7°F2.6°C 35.6°F2.0°C 96% 2.9 mph E4.7 kmh E 11.0 mph17.7 kmh 29.59 in1002.0 mb 0.12 in3.0 mm 0.00 in0.0 mm 0.33 in8.4 mm
02:08 AM 36.7°F2.6°C 35.6°F2.0°C 96% 2.9 mph ENE4.7 kmh ENE 6.0 mph9.7 kmh 29.60 in1002.4 mb 0.12 in3.0 mm 0.00 in0.0 mm 0.33 in8.4 mm
02:07 AM 36.7°F2.6°C 35.6°F2.0°C 96% 4.0 mph E6.4 kmh E 4.0 mph6.4 kmh 29.60 in1002.4 mb 0.12 in3.0 mm 0.00 in0.0 mm 0.32 in8.1 mm
02:06 AM 36.7°F2.6°C 35.6°F2.0°C 96% 4.0 mph E6.4 kmh E 2.9 mph4.7 kmh 29.60 in1002.4 mb 0.12 in3.0 mm 0.00 in0.0 mm 0.32 in8.1 mm
02:05 AM 36.7°F2.6°C 35.6°F2.0°C 96% 4.0 mph ESE6.4 kmh ESE 6.9 mph11.1 kmh 29.60 in1002.4 mb 0.12 in3.0 mm 0.00 in0.0 mm 0.32 in8.1 mm
02:04 AM 36.7°F2.6°C 35.6°F2.0°C 96% 4.0 mph E6.4 kmh E 6.9 mph11.1 kmh 29.61 in1002.7 mb 0.13 in3.3 mm 0.00 in0.0 mm 0.32 in8.1 mm
02:03 AM 36.9°F2.7°C 35.8°F2.1°C 96% 4.9 mph ESE7.9 kmh ESE 4.0 mph6.4 kmh 29.61 in1002.7 mb 0.13 in3.3 mm 0.00 in0.0 mm 0.32 in8.1 mm
02:02 AM 36.9°F2.7°C 35.8°F2.1°C 96% 4.9 mph E7.9 kmh E 8.9 mph14.3 kmh 29.61 in1002.7 mb 0.13 in3.3 mm 0.00 in0.0 mm 0.32 in8.1 mm
02:01 AM 36.9°F2.7°C 35.8°F2.1°C 96% 4.9 mph E7.9 kmh E 8.9 mph14.3 kmh 29.62 in1003.0 mb 0.13 in3.3 mm 0.00 in0.0 mm 0.32 in8.1 mm
02:00 AM 36.9°F2.7°C 35.8°F2.1°C 96% 4.0 mph ESE6.4 kmh ESE 10.1 mph16.3 kmh 29.62 in1003.0 mb 0.14 in3.6 mm 0.00 in0.0 mm 0.32 in8.1 mm
01:59 AM 36.9°F2.7°C 35.8°F2.1°C 96% 4.0 mph SE6.4 kmh SE 4.9 mph7.9 kmh 29.62 in1003.0 mb 0.14 in3.6 mm 0.00 in0.0 mm 0.32 in8.1 mm
01:58 AM 36.9°F2.7°C 35.8°F2.1°C 96% 4.0 mph SE6.4 kmh SE 8.1 mph13.0 kmh 29.62 in1003.0 mb 0.14 in3.6 mm 0.00 in0.0 mm 0.32 in8.1 mm
01:57 AM 36.9°F2.7°C 35.8°F2.1°C 96% 4.0 mph ESE6.4 kmh ESE 11.0 mph17.7 kmh 29.61 in1002.7 mb 0.15 in3.8 mm 0.00 in0.0 mm 0.32 in8.1 mm
01:56 AM 36.9°F2.7°C 35.8°F2.1°C 96% 4.0 mph SE6.4 kmh SE 8.1 mph13.0 kmh 29.62 in1003.0 mb 0.15 in3.8 mm 0.00 in0.0 mm 0.32 in8.1 mm
01:55 AM 36.9°F2.7°C 35.8°F2.1°C 96% 4.0 mph SE6.4 kmh SE 8.9 mph14.3 kmh 29.62 in1003.0 mb 0.16 in4.1 mm 0.60 in15.2 mm 0.32 in8.1 mm
01:54 AM 36.9°F2.7°C 35.8°F2.1°C 96% 4.0 mph SE6.4 kmh SE 10.1 mph16.3 kmh 29.62 in1003.0 mb 0.15 in3.8 mm 0.00 in0.0 mm 0.32 in8.1 mm
01:53 AM 36.9°F2.7°C 35.8°F2.1°C 96% 4.0 mph SE6.4 kmh SE 8.9 mph14.3 kmh 29.62 in1003.0 mb 0.15 in3.8 mm 0.00 in0.0 mm 0.31 in7.9 mm
01:52 AM 36.9°F2.7°C 35.8°F2.1°C 96% 4.0 mph ESE6.4 kmh ESE 4.0 mph6.4 kmh 29.62 in1003.0 mb 0.16 in4.1 mm 0.00 in0.0 mm 0.31 in7.9 mm
01:50 AM 36.9°F2.7°C 35.8°F2.1°C 96% 4.0 mph E6.4 kmh E 4.0 mph6.4 kmh 29.62 in1003.0 mb 0.16 in4.1 mm 0.00 in0.0 mm 0.31 in7.9 mm
01:49 AM 36.9°F2.7°C 35.8°F2.1°C 96% 4.0 mph E6.4 kmh E 4.0 mph6.4 kmh 29.62 in1003.0 mb 0.16 in4.1 mm 0.00 in0.0 mm 0.31 in7.9 mm
01:48 AM 36.9°F2.7°C 35.8°F2.1°C 96% 2.9 mph E4.7 kmh E 8.1 mph13.0 kmh 29.62 in1003.0 mb 0.17 in4.3 mm 0.00 in0.0 mm 0.31 in7.9 mm
01:47 AM 36.9°F2.7°C 36.1°F2.3°C 97% 2.9 mph E4.7 kmh E 10.1 mph16.3 kmh 29.62 in1003.0 mb 0.17 in4.3 mm 0.00 in0.0 mm 0.31 in7.9 mm
01:46 AM 37.0°F2.8°C 36.3°F2.4°C 97% 2.9 mph ESE4.7 kmh ESE 11.0 mph17.7 kmh 29.62 in1003.0 mb 0.17 in4.3 mm 0.00 in0.0 mm 0.31 in7.9 mm
01:45 AM 37.0°F2.8°C 36.3°F2.4°C 97% 2.9 mph E4.7 kmh E 4.9 mph7.9 kmh 29.62 in1003.0 mb 0.17 in4.3 mm 0.00 in0.0 mm 0.31 in7.9 mm
01:44 AM 37.0°F2.8°C 36.3°F2.4°C 97% 2.9 mph SE4.7 kmh SE 10.1 mph16.3 kmh 29.63 in1003.4 mb 0.18 in4.6 mm 0.00 in0.0 mm 0.31 in7.9 mm
01:43 AM 37.0°F2.8°C 36.3°F2.4°C 97% 2.9 mph SE4.7 kmh SE 6.9 mph11.1 kmh 29.63 in1003.4 mb 0.18 in4.6 mm 0.60 in15.2 mm 0.31 in7.9 mm
01:42 AM 37.0°F2.8°C 36.3°F2.4°C 97% 2.9 mph SE4.7 kmh SE 2.0 mph3.2 kmh 29.63 in1003.4 mb 0.17 in4.3 mm 0.00 in0.0 mm 0.30 in7.6 mm
01:41 AM 36.9°F2.7°C 35.8°F2.1°C 96% 4.0 mph SE6.4 kmh SE 6.0 mph9.7 kmh 29.63 in1003.4 mb 0.17 in4.3 mm 0.00 in0.0 mm 0.30 in7.6 mm
01:40 AM 36.9°F2.7°C 35.8°F2.1°C 96% 4.0 mph S6.4 kmh S 4.9 mph7.9 kmh 29.64 in1003.7 mb 0.18 in4.6 mm 0.00 in0.0 mm 0.30 in7.6 mm
01:39 AM 36.9°F2.7°C 35.8°F2.1°C 96% 4.0 mph SSW6.4 kmh SSW 2.0 mph3.2 kmh 29.64 in1003.7 mb 0.18 in4.6 mm 0.00 in0.0 mm 0.30 in7.6 mm
01:38 AM 36.9°F2.7°C 35.8°F2.1°C 96% 4.0 mph SSW6.4 kmh SSW 4.9 mph7.9 kmh 29.64 in1003.7 mb 0.18 in4.6 mm 0.00 in0.0 mm 0.30 in7.6 mm
01:37 AM 36.9°F2.7°C 35.8°F2.1°C 96% 4.9 mph SSE7.9 kmh SSE 8.1 mph13.0 kmh 29.63 in1003.4 mb 0.18 in4.6 mm 0.00 in0.0 mm 0.30 in7.6 mm
01:36 AM 36.9°F2.7°C 35.8°F2.1°C 96% 4.9 mph ESE7.9 kmh ESE 4.0 mph6.4 kmh 29.63 in1003.4 mb 0.19 in4.8 mm 0.00 in0.0 mm 0.30 in7.6 mm
01:35 AM 36.9°F2.7°C 35.8°F2.1°C 96% 4.9 mph ESE7.9 kmh ESE 6.9 mph11.1 kmh 29.63 in1003.4 mb 0.19 in4.8 mm 0.60 in15.2 mm 0.30 in7.6 mm
01:34 AM 36.9°F2.7°C 35.8°F2.1°C 96% 4.9 mph SE7.9 kmh SE 8.9 mph14.3 kmh 29.63 in1003.4 mb 0.18 in4.6 mm 0.00 in0.0 mm 0.30 in7.6 mm
01:33 AM 36.9°F2.7°C 35.8°F2.1°C 96% 4.9 mph SE7.9 kmh SE 11.0 mph17.7 kmh 29.63 in1003.4 mb 0.18 in4.6 mm 0.00 in0.0 mm 0.29 in7.4 mm
01:32 AM 36.9°F2.7°C 35.8°F2.1°C 96% 4.0 mph SE6.4 kmh SE 8.9 mph14.3 kmh 29.63 in1003.4 mb 0.19 in4.8 mm 0.00 in0.0 mm 0.29 in7.4 mm
01:31 AM 36.9°F2.7°C 35.8°F2.1°C 96% 4.0 mph ENE6.4 kmh ENE 10.1 mph16.3 kmh 29.63 in1003.4 mb 0.19 in4.8 mm 0.00 in0.0 mm 0.29 in7.4 mm
01:30 AM 36.7°F2.6°C 35.6°F2.0°C 96% 4.0 mph E6.4 kmh E 8.9 mph14.3 kmh 29.63 in1003.4 mb 0.19 in4.8 mm 0.00 in0.0 mm 0.29 in7.4 mm
01:29 AM 36.7°F2.6°C 35.6°F2.0°C 96% 4.0 mph SSE6.4 kmh SSE 6.9 mph11.1 kmh 29.64 in1003.7 mb 0.19 in4.8 mm 0.60 in15.2 mm 0.29 in7.4 mm
01:28 AM 36.7°F2.6°C 35.6°F2.0°C 96% 2.9 mph E4.7 kmh E 10.1 mph16.3 kmh 29.64 in1003.7 mb 0.18 in4.6 mm 0.00 in0.0 mm 0.29 in7.4 mm
01:27 AM 36.7°F2.6°C 35.6°F2.0°C 96% 2.9 mph E4.7 kmh E 11.0 mph17.7 kmh 29.65 in1004.1 mb 0.19 in4.8 mm 0.00 in0.0 mm 0.28 in7.1 mm
01:26 AM 36.7°F2.6°C 35.6°F2.0°C 96% 2.9 mph ESE4.7 kmh ESE 2.9 mph4.7 kmh 29.65 in1004.1 mb 0.19 in4.8 mm 0.00 in0.0 mm 0.28 in7.1 mm
01:25 AM 36.7°F2.6°C 36.0°F2.2°C 97% 2.9 mph SW4.7 kmh SW 4.9 mph7.9 kmh 29.65 in1004.1 mb 0.19 in4.8 mm 0.00 in0.0 mm 0.28 in7.1 mm
01:24 AM 36.7°F2.6°C 36.0°F2.2°C 97% 2.9 mph SW4.7 kmh SW 6.0 mph9.7 kmh 29.66 in1004.4 mb 0.19 in4.8 mm 0.00 in0.0 mm 0.28 in7.1 mm
01:23 AM 36.7°F2.6°C 36.0°F2.2°C 97% 2.9 mph S4.7 kmh S 6.0 mph9.7 kmh 29.65 in1004.1 mb 0.19 in4.8 mm 0.60 in15.2 mm 0.27 in6.9 mm
01:22 AM 36.5°F2.5°C 35.8°F2.1°C 97% 2.9 mph ESE4.7 kmh ESE 6.0 mph9.7 kmh 29.65 in1004.1 mb 0.18 in4.6 mm 0.00 in0.0 mm 0.27 in6.9 mm
01:21 AM 36.5°F2.5°C 35.8°F2.1°C 97% 2.9 mph SE4.7 kmh SE 8.1 mph13.0 kmh 29.64 in1003.7 mb 0.19 in4.8 mm 0.00 in0.0 mm 0.26 in6.6 mm
01:20 AM 36.5°F2.5°C 35.8°F2.1°C 97% 2.9 mph SE4.7 kmh SE 6.0 mph9.7 kmh 29.65 in1004.1 mb 0.19 in4.8 mm 0.00 in0.0 mm 0.26 in6.6 mm
01:19 AM 36.5°F2.5°C 35.8°F2.1°C 97% 2.9 mph ESE4.7 kmh ESE 4.0 mph6.4 kmh 29.65 in1004.1 mb 0.19 in4.8 mm 0.00 in0.0 mm 0.26 in6.6 mm
01:18 AM 36.3°F2.4°C 35.6°F2.0°C 97% 2.9 mph ESE4.7 kmh ESE 6.9 mph11.1 kmh 29.65 in1004.1 mb 0.20 in5.1 mm 0.60 in15.2 mm 0.26 in6.6 mm
01:17 AM 36.3°F2.4°C 35.6°F2.0°C 97% 2.9 mph E4.7 kmh E 8.9 mph14.3 kmh 29.65 in1004.1 mb 0.19 in4.8 mm 0.00 in0.0 mm 0.25 in6.4 mm
01:16 AM 36.3°F2.4°C 35.6°F2.0°C 97% 2.9 mph ESE4.7 kmh ESE 8.1 mph13.0 kmh 29.65 in1004.1 mb 0.20 in5.1 mm 0.60 in15.2 mm 0.25 in6.4 mm
01:15 AM 36.3°F2.4°C 35.6°F2.0°C 97% 2.9 mph ENE4.7 kmh ENE 8.9 mph14.3 kmh 29.65 in1004.1 mb 0.19 in4.8 mm 0.00 in0.0 mm 0.25 in6.4 mm
01:14 AM 36.3°F2.4°C 35.6°F2.0°C 97% 2.9 mph ESE4.7 kmh ESE 8.9 mph14.3 kmh 29.65 in1004.1 mb 0.20 in5.1 mm 0.00 in0.0 mm 0.24 in6.1 mm
01:13 AM 36.3°F2.4°C 35.6°F2.0°C 97% 2.9 mph ENE4.7 kmh ENE 4.0 mph6.4 kmh 29.65 in1004.1 mb 0.20 in5.1 mm 0.00 in0.0 mm 0.24 in6.1 mm
01:12 AM 36.3°F2.4°C 35.6°F2.0°C 97% 2.9 mph ESE4.7 kmh ESE 4.0 mph6.4 kmh 29.65 in1004.1 mb 0.20 in5.1 mm 0.60 in15.2 mm 0.24 in6.1 mm
01:11 AM 36.3°F2.4°C 35.6°F2.0°C 97% 2.9 mph ESE4.7 kmh ESE 4.9 mph7.9 kmh 29.65 in1004.1 mb 0.19 in4.8 mm 0.00 in0.0 mm 0.24 in6.1 mm
01:10 AM 36.3°F2.4°C 35.2°F1.8°C 96% 2.9 mph SSE4.7 kmh SSE 4.9 mph7.9 kmh 29.65 in1004.1 mb 0.19 in4.8 mm 0.60 in15.2 mm 0.23 in5.8 mm
01:09 AM 36.3°F2.4°C 35.2°F1.8°C 96% 2.9 mph SE4.7 kmh SE 6.9 mph11.1 kmh 29.65 in1004.1 mb 0.18 in4.6 mm 0.00 in0.0 mm 0.23 in5.8 mm
01:08 AM 36.1°F2.3°C 35.1°F1.7°C 96% 2.9 mph ESE4.7 kmh ESE 8.1 mph13.0 kmh 29.65 in1004.1 mb 0.18 in4.6 mm 0.00 in0.0 mm 0.21 in5.3 mm
01:07 AM 36.1°F2.3°C 35.1°F1.7°C 96% 4.0 mph E6.4 kmh E 4.0 mph6.4 kmh 29.65 in1004.1 mb 0.18 in4.6 mm 0.00 in0.0 mm 0.21 in5.3 mm
01:06 AM 36.1°F2.3°C 35.1°F1.7°C 96% 4.0 mph SE6.4 kmh SE 8.1 mph13.0 kmh 29.65 in1004.1 mb 0.18 in4.6 mm 0.00 in0.0 mm 0.20 in5.1 mm
01:05 AM 36.1°F2.3°C 35.1°F1.7°C 96% 4.0 mph SE6.4 kmh SE 8.1 mph13.0 kmh 29.64 in1003.7 mb 0.18 in4.6 mm 0.00 in0.0 mm 0.20 in5.1 mm
01:04 AM 36.1°F2.3°C 35.1°F1.7°C 96% 4.0 mph ENE6.4 kmh ENE 4.0 mph6.4 kmh 29.64 in1003.7 mb 0.19 in4.8 mm 0.60 in15.2 mm 0.20 in5.1 mm
01:03 AM 36.0°F2.2°C 34.9°F1.6°C 96% 2.9 mph E4.7 kmh E 6.0 mph9.7 kmh 29.64 in1003.7 mb 0.18 in4.6 mm 0.00 in0.0 mm 0.20 in5.1 mm
01:02 AM 36.0°F2.2°C 34.9°F1.6°C 96% 2.9 mph E4.7 kmh E 4.0 mph6.4 kmh 29.65 in1004.1 mb 0.18 in4.6 mm 0.00 in0.0 mm 0.19 in4.8 mm
01:01 AM 36.0°F2.2°C 34.9°F1.6°C 96% 4.0 mph NE6.4 kmh NE 10.1 mph16.3 kmh 29.65 in1004.1 mb 0.19 in4.8 mm 0.00 in0.0 mm 0.19 in4.8 mm
01:00 AM 36.0°F2.2°C 34.9°F1.6°C 96% 4.0 mph ESE6.4 kmh ESE 8.9 mph14.3 kmh 29.65 in1004.1 mb 0.19 in4.8 mm 0.01 in0.3 mm 0.19 in4.8 mm
12:59 AM 36.0°F2.2°C 34.9°F1.6°C 96% 2.9 mph SE4.7 kmh SE 8.1 mph13.0 kmh 29.65 in1004.1 mb 0.18 in4.6 mm 0.00 in0.0 mm 0.18 in4.6 mm
12:58 AM 36.0°F2.2°C 34.9°F1.6°C 96% 2.9 mph SE4.7 kmh SE 8.9 mph14.3 kmh 29.65 in1004.1 mb 0.19 in4.8 mm 0.00 in0.0 mm 0.18 in4.6 mm
12:57 AM 36.0°F2.2°C 34.9°F1.6°C 96% 2.9 mph ESE4.7 kmh ESE 8.1 mph13.0 kmh 29.65 in1004.1 mb 0.19 in4.8 mm 0.00 in0.0 mm 0.18 in4.6 mm
12:56 AM 36.0°F2.2°C 34.9°F1.6°C 96% 2.9 mph E4.7 kmh E 4.0 mph6.4 kmh 29.64 in1003.7 mb 0.19 in4.8 mm 0.00 in0.0 mm 0.18 in4.6 mm
12:55 AM 36.0°F2.2°C 34.9°F1.6°C 96% 2.9 mph ESE4.7 kmh ESE 4.0 mph6.4 kmh 29.65 in1004.1 mb 0.19 in4.8 mm 0.60 in15.2 mm 0.17 in4.3 mm
12:54 AM 36.0°F2.2°C 34.9°F1.6°C 96% 2.9 mph ESE4.7 kmh ESE 4.9 mph7.9 kmh 29.65 in1004.1 mb 0.18 in4.6 mm 0.00 in0.0 mm 0.16 in4.1 mm
12:53 AM 36.0°F2.2°C 34.9°F1.6°C 96% 2.9 mph SSE4.7 kmh SSE 4.0 mph6.4 kmh 29.65 in1004.1 mb 0.19 in4.8 mm 0.00 in0.0 mm 0.16 in4.1 mm
12:52 AM 36.0°F2.2°C 34.9°F1.6°C 96% 2.9 mph E4.7 kmh E 8.9 mph14.3 kmh 29.65 in1004.1 mb 0.19 in4.8 mm 0.60 in15.2 mm 0.16 in4.1 mm
12:51 AM 36.0°F2.2°C 34.9°F1.6°C 96% 2.9 mph ESE4.7 kmh ESE 10.1 mph16.3 kmh 29.66 in1004.4 mb 0.18 in4.6 mm 0.00 in0.0 mm 0.16 in4.1 mm
12:50 AM 36.0°F2.2°C 34.9°F1.6°C 96% 2.9 mph E4.7 kmh E 8.9 mph14.3 kmh 29.66 in1004.4 mb 0.19 in4.8 mm 0.00 in0.0 mm 0.15 in3.8 mm
12:49 AM 36.0°F2.2°C 34.9°F1.6°C 96% 4.0 mph E6.4 kmh E 8.9 mph14.3 kmh 29.66 in1004.4 mb 0.19 in4.8 mm 0.60 in15.2 mm 0.15 in3.8 mm
12:48 AM 36.0°F2.2°C 34.9°F1.6°C 96% 4.0 mph ENE6.4 kmh ENE 8.9 mph14.3 kmh 29.66 in1004.4 mb 0.18 in4.6 mm 0.00 in0.0 mm 0.15 in3.8 mm
12:47 AM 36.0°F2.2°C 34.9°F1.6°C 96% 4.0 mph ESE6.4 kmh ESE 8.9 mph14.3 kmh 29.66 in1004.4 mb 0.18 in4.6 mm 0.00 in0.0 mm 0.14 in3.6 mm
12:46 AM 36.0°F2.2°C 34.9°F1.6°C 96% 4.0 mph ENE6.4 kmh ENE 4.0 mph6.4 kmh 29.66 in1004.4 mb 0.18 in4.6 mm 0.00 in0.0 mm 0.14 in3.6 mm
12:45 AM 36.0°F2.2°C 34.9°F1.6°C 96% 4.9 mph SE7.9 kmh SE 6.9 mph11.1 kmh 29.66 in1004.4 mb 0.18 in4.6 mm 0.00 in0.0 mm 0.14 in3.6 mm
12:44 AM 35.8°F2.1°C 34.7°F1.5°C 96% 4.9 mph SE7.9 kmh SE 6.9 mph11.1 kmh 29.66 in1004.4 mb 0.18 in4.6 mm 0.00 in0.0 mm 0.14 in3.6 mm
12:43 AM 35.8°F2.1°C 34.7°F1.5°C 96% 4.0 mph E6.4 kmh E 6.0 mph9.7 kmh 29.66 in1004.4 mb 0.18 in4.6 mm 0.00 in0.0 mm 0.13 in3.3 mm
12:42 AM 35.8°F2.1°C 34.7°F1.5°C 96% 4.0 mph SE6.4 kmh SE 8.1 mph13.0 kmh 29.66 in1004.4 mb 0.18 in4.6 mm 0.00 in0.0 mm 0.13 in3.3 mm
12:41 AM 35.8°F2.1°C 34.7°F1.5°C 96% 4.0 mph ENE6.4 kmh ENE 12.1 mph19.5 kmh 29.66 in1004.4 mb 0.19 in4.8 mm 0.60 in15.2 mm 0.13 in3.3 mm
12:40 AM 35.6°F2.0°C 34.5°F1.4°C 96% 4.0 mph E6.4 kmh E 12.1 mph19.5 kmh 29.66 in1004.4 mb 0.18 in4.6 mm 0.00 in0.0 mm 0.12 in3.0 mm
12:39 AM 35.6°F2.0°C 34.5°F1.4°C 96% 2.9 mph E4.7 kmh E 12.1 mph19.5 kmh 29.66 in1004.4 mb 0.18 in4.6 mm 0.00 in0.0 mm 0.12 in3.0 mm
12:38 AM 35.6°F2.0°C 34.5°F1.4°C 96% 2.9 mph E4.7 kmh E 10.1 mph16.3 kmh 29.66 in1004.4 mb 0.18 in4.6 mm 0.00 in0.0 mm 0.12 in3.0 mm
12:37 AM 35.6°F2.0°C 34.5°F1.4°C 96% 2.9 mph SE4.7 kmh SE 8.9 mph14.3 kmh 29.66 in1004.4 mb 0.19 in4.8 mm 0.60 in15.2 mm 0.12 in3.0 mm
12:36 AM 35.6°F2.0°C 34.5°F1.4°C 96% 2.0 mph E3.2 kmh E 10.1 mph16.3 kmh 29.67 in1004.7 mb 0.18 in4.6 mm 0.00 in0.0 mm 0.12 in3.0 mm
12:35 AM 35.6°F2.0°C 34.5°F1.4°C 96% 2.0 mph ESE3.2 kmh ESE 8.9 mph14.3 kmh 29.67 in1004.7 mb 0.18 in4.6 mm 0.00 in0.0 mm 0.11 in2.8 mm
12:34 AM 35.6°F2.0°C 34.5°F1.4°C 96% 2.0 mph SE3.2 kmh SE 8.9 mph14.3 kmh 29.67 in1004.7 mb 0.18 in4.6 mm 0.00 in0.0 mm 0.11 in2.8 mm
12:33 AM 35.6°F2.0°C 34.5°F1.4°C 96% 2.0 mph E3.2 kmh E 2.9 mph4.7 kmh 29.67 in1004.7 mb 0.19 in4.8 mm 0.60 in15.2 mm 0.11 in2.8 mm
12:32 AM 35.6°F2.0°C 34.5°F1.4°C 96% 2.0 mph E3.2 kmh E 4.0 mph6.4 kmh 29.68 in1005.1 mb 0.18 in4.6 mm 0.00 in0.0 mm 0.11 in2.8 mm
12:31 AM 35.6°F2.0°C 34.5°F1.4°C 96% 2.0 mph ESE3.2 kmh ESE 4.0 mph6.4 kmh 29.68 in1005.1 mb 0.18 in4.6 mm 0.00 in0.0 mm 0.10 in2.5 mm
12:30 AM 35.6°F2.0°C 34.5°F1.4°C 96% 2.0 mph ESE3.2 kmh ESE 6.0 mph9.7 kmh 29.68 in1005.1 mb 0.19 in4.8 mm 0.00 in0.0 mm 0.10 in2.5 mm
12:29 AM 35.6°F2.0°C 34.5°F1.4°C 96% 2.0 mph E3.2 kmh E 4.0 mph6.4 kmh 29.68 in1005.1 mb 0.19 in4.8 mm 0.00 in0.0 mm 0.10 in2.5 mm
12:28 AM 35.8°F2.1°C 34.7°F1.5°C 96% 2.0 mph E3.2 kmh E 4.0 mph6.4 kmh 29.68 in1005.1 mb 0.19 in4.8 mm 0.00 in0.0 mm 0.10 in2.5 mm
12:27 AM 35.8°F2.1°C 34.7°F1.5°C 96% 2.0 mph ENE3.2 kmh ENE 0.9 mph1.4 kmh 29.69 in1005.4 mb 0.19 in4.8 mm 0.00 in0.0 mm 0.09 in2.3 mm
12:26 AM 35.8°F2.1°C 34.7°F1.5°C 96% 2.0 mph ENE3.2 kmh ENE 2.9 mph4.7 kmh 29.69 in1005.4 mb 0.19 in4.8 mm 0.00 in0.0 mm 0.09 in2.3 mm
12:25 AM 35.8°F2.1°C 34.7°F1.5°C 96% 2.0 mph ENE3.2 kmh ENE 8.1 mph13.0 kmh 29.70 in1005.8 mb 0.19 in4.8 mm 0.00 in0.0 mm 0.09 in2.3 mm
12:24 AM 35.8°F2.1°C 34.7°F1.5°C 96% 0.9 mph ESE1.4 kmh ESE 8.1 mph13.0 kmh 29.70 in1005.8 mb 0.19 in4.8 mm 0.00 in0.0 mm 0.08 in2.0 mm
12:23 AM 35.8°F2.1°C 34.7°F1.5°C 96% 0.9 mph NW1.4 kmh NW 2.9 mph4.7 kmh 29.70 in1005.8 mb 0.19 in4.8 mm 0.00 in0.0 mm 0.08 in2.0 mm
12:22 AM 35.8°F2.1°C 34.7°F1.5°C 96% 0.9 mph NW1.4 kmh NW 2.0 mph3.2 kmh 29.70 in1005.8 mb 0.19 in4.8 mm 0.60 in15.2 mm 0.08 in2.0 mm
12:21 AM 35.8°F2.1°C 34.7°F1.5°C 96% 2.0 mph NW3.2 kmh NW 2.9 mph4.7 kmh 29.70 in1005.8 mb 0.18 in4.6 mm 0.00 in0.0 mm 0.07 in1.8 mm
12:20 AM 35.8°F2.1°C 34.7°F1.5°C 96% 2.0 mph NW3.2 kmh NW 2.9 mph4.7 kmh 29.71 in1006.1 mb 0.19 in4.8 mm 0.00 in0.0 mm 0.07 in1.8 mm
12:19 AM 35.8°F2.1°C 34.7°F1.5°C 96% 2.0 mph NW3.2 kmh NW 2.9 mph4.7 kmh 29.71 in1006.1 mb 0.19 in4.8 mm 0.60 in15.2 mm 0.07 in1.8 mm
12:18 AM 35.8°F2.1°C 34.7°F1.5°C 96% 2.9 mph NW4.7 kmh NW 2.0 mph3.2 kmh 29.72 in1006.4 mb 0.18 in4.6 mm 0.00 in0.0 mm 0.06 in1.5 mm
12:17 AM 35.8°F2.1°C 34.7°F1.5°C 96% 2.9 mph NW4.7 kmh NW 2.0 mph3.2 kmh 29.72 in1006.4 mb 0.18 in4.6 mm 0.60 in15.2 mm 0.06 in1.5 mm
12:16 AM 35.8°F2.1°C 34.7°F1.5°C 96% 2.9 mph NW4.7 kmh NW 2.9 mph4.7 kmh 29.71 in1006.1 mb 0.17 in4.3 mm 0.00 in0.0 mm 0.06 in1.5 mm
12:15 AM 35.8°F2.1°C 34.7°F1.5°C 96% 4.0 mph NW6.4 kmh NW 2.0 mph3.2 kmh 29.71 in1006.1 mb 0.18 in4.6 mm 0.60 in15.2 mm 0.05 in1.3 mm
12:14 AM 35.6°F2.0°C 34.5°F1.4°C 96% 4.0 mph NW6.4 kmh NW 2.9 mph4.7 kmh 29.71 in1006.1 mb 0.17 in4.3 mm 0.00 in0.0 mm 0.05 in1.3 mm
12:13 AM 35.6°F2.0°C 34.5°F1.4°C 96% 4.0 mph SE6.4 kmh SE 2.9 mph4.7 kmh 29.71 in1006.1 mb 0.17 in4.3 mm 0.00 in0.0 mm 0.04 in1.0 mm
12:12 AM 35.6°F2.0°C 34.5°F1.4°C 96% 4.0 mph S6.4 kmh S 6.0 mph9.7 kmh 29.70 in1005.8 mb 0.18 in4.6 mm 0.00 in0.0 mm 0.04 in1.0 mm
12:11 AM 35.6°F2.0°C 34.5°F1.4°C 96% 4.0 mph SE6.4 kmh SE 8.9 mph14.3 kmh 29.70 in1005.8 mb 0.18 in4.6 mm 0.00 in0.0 mm 0.04 in1.0 mm
12:10 AM 35.6°F2.0°C 34.5°F1.4°C 96% 4.0 mph SE6.4 kmh SE 8.9 mph14.3 kmh 29.70 in1005.8 mb 0.18 in4.6 mm 0.00 in0.0 mm 0.04 in1.0 mm
12:09 AM 35.4°F1.9°C 34.3°F1.3°C 96% 4.0 mph SE6.4 kmh SE 6.9 mph11.1 kmh 29.70 in1005.8 mb 0.19 in4.8 mm 0.60 in15.2 mm 0.04 in1.0 mm
12:08 AM 35.4°F1.9°C 34.3°F1.3°C 96% 4.0 mph SE6.4 kmh SE 13.0 mph20.9 kmh 29.70 in1005.8 mb 0.18 in4.6 mm 0.60 in15.2 mm 0.04 in1.0 mm
12:07 AM 35.4°F1.9°C 34.3°F1.3°C 96% 2.9 mph ESE4.7 kmh ESE 6.0 mph9.7 kmh 29.70 in1005.8 mb 0.17 in4.3 mm 0.00 in0.0 mm 0.03 in0.8 mm
12:06 AM 35.4°F1.9°C 34.3°F1.3°C 96% 2.9 mph E4.7 kmh E 8.1 mph13.0 kmh 29.70 in1005.8 mb 0.17 in4.3 mm 0.00 in0.0 mm 0.02 in0.5 mm
12:05 AM 35.4°F1.9°C 34.3°F1.3°C 96% 2.9 mph E4.7 kmh E 10.1 mph16.3 kmh 29.70 in1005.8 mb 0.18 in4.6 mm 0.60 in15.2 mm 0.02 in0.5 mm
12:04 AM 35.4°F1.9°C 34.3°F1.3°C 96% 2.9 mph ESE4.7 kmh ESE 8.1 mph13.0 kmh 29.71 in1006.1 mb 0.17 in4.3 mm 0.00 in0.0 mm 0.02 in0.5 mm
12:03 AM 35.4°F1.9°C 34.3°F1.3°C 96% 2.9 mph E4.7 kmh E 8.1 mph13.0 kmh 29.70 in1005.8 mb 0.17 in4.3 mm 0.00 in0.0 mm 0.01 in0.3 mm
12:02 AM 35.4°F1.9°C 34.3°F1.3°C 96% 2.9 mph ESE4.7 kmh ESE 8.1 mph13.0 kmh 29.70 in1005.8 mb 0.18 in4.6 mm 0.60 in15.2 mm 0.01 in0.3 mm
12:01 AM 35.4°F1.9°C 34.3°F1.3°C 96% 2.9 mph E4.7 kmh E 8.1 mph13.0 kmh 29.71 in1006.1 mb 0.17 in4.3 mm 0.00 in0.0 mm 0.17 in4.3 mm
12:00 AM 35.4°F1.9°C 34.3°F1.3°C 96% 2.9 mph SE4.7 kmh SE 2.9 mph4.7 kmh 29.70 in1005.8 mb 0.17 in4.3 mm 0.00 in0.0 mm 0.17 in4.3 mm